PWSweather.com
Personal Weather Stations
Station Observations
OZIERI
Punta Idda, OzieriIT

Punta IddaOzieriIT

Lat: 40.584142, Lon: 9.007657999999992

Elevation: 1483

Station Type: Lacrosse ws2350

www.ozierimeteo.altervista.com

High Low Average
Temperature 87.4°F30.8°C 70.5°F21.4°C 78.0°F25.6°C
Dew Point 61.5°F16.4°C 49.8°F9.9°C 55.6°F13.1°C
Winds 9.2 mph 14.8 kmh 0.2 mph 0.3 kmh 4.0 mph ESE6.4 kmh ESE
Wind Gusts 17.7 mph28.5 kmh -- 6.0 mph9.7 kmh
Humidity 56% 36% 46%
Pressure 30.14 in1020.7 mb 29.96 in1014.6 mb -
Precipitation 0.00 in0.0 mm - -
Hour Temp Dew Point Humidity Winds Wind Gusts Pressure Precip Precip Rate Daily Precip Total
12:01 AM 75.0°F23.9°C 51.6°F10.9°C 44% 2.5 mph ESE4.0 kmh ESE 4.5 mph7.2 kmh 29.98 in1015.2 mb 0.00 in0.0 mm 0.00 in0.0 mm 0.00 in0.0 mm
12:03 AM 75.0°F23.9°C 51.6°F10.9°C 44% 2.9 mph ESE4.7 kmh ESE 4.3 mph6.9 kmh 29.98 in1015.2 mb 0.00 in0.0 mm 0.00 in0.0 mm 0.00 in0.0 mm
12:06 AM 75.0°F23.9°C 51.6°F10.9°C 44% 3.4 mph ESE5.5 kmh ESE 5.4 mph8.7 kmh 29.97 in1014.9 mb 0.00 in0.0 mm 0.00 in0.0 mm 0.00 in0.0 mm
12:08 AM 75.0°F23.9°C 51.6°F10.9°C 44% 3.1 mph E5.0 kmh E 3.8 mph6.1 kmh 29.97 in1014.9 mb 0.00 in0.0 mm 0.00 in0.0 mm 0.00 in0.0 mm
12:10 AM 75.0°F23.9°C 51.6°F10.9°C 44% 3.4 mph SE5.5 kmh SE 4.5 mph7.2 kmh 29.97 in1014.9 mb 0.00 in0.0 mm 0.00 in0.0 mm 0.00 in0.0 mm
12:12 AM 74.5°F23.6°C 51.1°F10.6°C 44% 4.5 mph SE7.2 kmh SE 6.7 mph10.8 kmh 29.97 in1014.9 mb 0.00 in0.0 mm 0.00 in0.0 mm 0.00 in0.0 mm
12:14 AM 74.1°F23.4°C 51.4°F10.8°C 45% 4.5 mph E7.2 kmh E 5.6 mph9.0 kmh 29.97 in1014.9 mb 0.00 in0.0 mm 0.00 in0.0 mm 0.00 in0.0 mm
12:17 AM 73.9°F23.3°C 51.3°F10.7°C 45% 4.5 mph ESE7.2 kmh ESE 6.0 mph9.7 kmh 29.98 in1015.2 mb 0.00 in0.0 mm 0.00 in0.0 mm 0.00 in0.0 mm
12:19 AM 73.6°F23.1°C 51.4°F10.8°C 46% 4.9 mph E7.9 kmh E 6.9 mph11.1 kmh 29.98 in1015.2 mb 0.00 in0.0 mm 0.00 in0.0 mm 0.00 in0.0 mm
12:21 AM 73.2°F22.9°C 51.3°F10.7°C 46% 4.7 mph E7.6 kmh E 6.5 mph10.5 kmh 29.98 in1015.2 mb 0.00 in0.0 mm 0.00 in0.0 mm 0.00 in0.0 mm
12:23 AM 73.2°F22.9°C 51.8°F11.0°C 47% 5.8 mph ESE9.3 kmh ESE 8.7 mph14.0 kmh 29.98 in1015.2 mb 0.00 in0.0 mm 0.00 in0.0 mm 0.00 in0.0 mm
12:25 AM 73.0°F22.8°C 51.6°F10.9°C 47% 5.1 mph ESE8.2 kmh ESE 5.1 mph8.2 kmh 29.97 in1014.9 mb 0.00 in0.0 mm 0.00 in0.0 mm 0.00 in0.0 mm
12:27 AM 72.7°F22.6°C 51.3°F10.7°C 47% 4.7 mph ESE7.6 kmh ESE 5.8 mph9.3 kmh 29.97 in1014.9 mb 0.00 in0.0 mm 0.00 in0.0 mm 0.00 in0.0 mm
12:29 AM 72.7°F22.6°C 51.8°F11.0°C 48% 4.7 mph SE7.6 kmh SE 5.6 mph9.0 kmh 29.97 in1014.9 mb 0.00 in0.0 mm 0.00 in0.0 mm 0.00 in0.0 mm
12:32 AM 72.5°F22.5°C 51.6°F10.9°C 48% 4.7 mph SE7.6 kmh SE 6.0 mph9.7 kmh 29.97 in1014.9 mb 0.00 in0.0 mm 0.00 in0.0 mm 0.00 in0.0 mm
12:34 AM 72.3°F22.4°C 51.4°F10.8°C 48% 4.3 mph SE6.9 kmh SE 5.8 mph9.3 kmh 29.97 in1014.9 mb 0.00 in0.0 mm 0.00 in0.0 mm 0.00 in0.0 mm
12:36 AM 72.3°F22.4°C 51.4°F10.8°C 48% 3.8 mph E6.1 kmh E 4.3 mph6.9 kmh 29.97 in1014.9 mb 0.00 in0.0 mm 0.00 in0.0 mm 0.00 in0.0 mm
12:39 AM 72.3°F22.4°C 51.4°F10.8°C 48% 3.4 mph ESE5.5 kmh ESE 3.6 mph5.8 kmh 29.97 in1014.9 mb 0.00 in0.0 mm 0.00 in0.0 mm 0.00 in0.0 mm
12:41 AM 72.3°F22.4°C 51.4°F10.8°C 48% 3.4 mph SE5.5 kmh SE 3.8 mph6.1 kmh 29.96 in1014.6 mb 0.00 in0.0 mm 0.00 in0.0 mm 0.00 in0.0 mm
12:43 AM 72.5°F22.5°C 51.6°F10.9°C 48% 3.4 mph SE5.5 kmh SE 3.8 mph6.1 kmh 29.96 in1014.6 mb 0.00 in0.0 mm 0.00 in0.0 mm 0.00 in0.0 mm
12:45 AM 72.5°F22.5°C 51.6°F10.9°C 48% 3.6 mph E5.8 kmh E 5.1 mph8.2 kmh 29.96 in1014.6 mb 0.00 in0.0 mm 0.00 in0.0 mm 0.00 in0.0 mm
12:47 AM 72.7°F22.6°C 51.3°F10.7°C 47% 3.8 mph E6.1 kmh E 5.1 mph8.2 kmh 29.96 in1014.6 mb 0.00 in0.0 mm 0.00 in0.0 mm 0.00 in0.0 mm
12:50 AM 72.7°F22.6°C 51.3°F10.7°C 47% 3.8 mph SE6.1 kmh SE 5.8 mph9.3 kmh 29.96 in1014.6 mb 0.00 in0.0 mm 0.00 in0.0 mm 0.00 in0.0 mm
12:52 AM 72.5°F22.5°C 51.6°F10.9°C 48% 3.6 mph SE5.8 kmh SE 4.9 mph7.9 kmh 29.96 in1014.6 mb 0.00 in0.0 mm 0.00 in0.0 mm 0.00 in0.0 mm
12:54 AM 72.3°F22.4°C 51.4°F10.8°C 48% 3.6 mph ESE5.8 kmh ESE 4.7 mph7.6 kmh 29.96 in1014.6 mb 0.00 in0.0 mm 0.00 in0.0 mm 0.00 in0.0 mm
12:56 AM 72.3°F22.4°C 51.4°F10.8°C 48% 3.6 mph SE5.8 kmh SE 4.3 mph6.9 kmh 29.96 in1014.6 mb 0.00 in0.0 mm 0.00 in0.0 mm 0.00 in0.0 mm
12:58 AM 72.1°F22.3°C 51.4°F10.8°C 48% 4.0 mph E6.4 kmh E 5.6 mph9.0 kmh 29.96 in1014.6 mb 0.00 in0.0 mm 0.00 in0.0 mm 0.00 in0.0 mm
01:01 AM 72.1°F22.3°C 51.4°F10.8°C 48% 4.3 mph ESE6.9 kmh ESE 5.8 mph9.3 kmh 29.96 in1014.6 mb 0.00 in0.0 mm 0.00 in0.0 mm 0.00 in0.0 mm
01:03 AM 72.0°F22.2°C 51.3°F10.7°C 48% 4.3 mph E6.9 kmh E 6.3 mph10.1 kmh 29.96 in1014.6 mb 0.00 in0.0 mm 0.00 in0.0 mm 0.00 in0.0 mm
01:05 AM 72.0°F22.2°C 51.8°F11.0°C 49% 4.0 mph ESE6.4 kmh ESE 5.1 mph8.2 kmh 29.96 in1014.6 mb 0.00 in0.0 mm 0.00 in0.0 mm 0.00 in0.0 mm
01:07 AM 71.8°F22.1°C 51.6°F10.9°C 49% 4.3 mph ESE6.9 kmh ESE 5.4 mph8.7 kmh 29.96 in1014.6 mb 0.00 in0.0 mm 0.00 in0.0 mm 0.00 in0.0 mm
01:10 AM 71.8°F22.1°C 51.6°F10.9°C 49% 4.9 mph ESE7.9 kmh ESE 6.3 mph10.1 kmh 29.96 in1014.6 mb 0.00 in0.0 mm 0.00 in0.0 mm 0.00 in0.0 mm
01:12 AM 72.0°F22.2°C 51.8°F11.0°C 49% 5.1 mph ESE8.2 kmh ESE 6.0 mph9.7 kmh 29.96 in1014.6 mb 0.00 in0.0 mm 0.00 in0.0 mm 0.00 in0.0 mm
01:14 AM 72.0°F22.2°C 51.8°F11.0°C 49% 5.1 mph ESE8.2 kmh ESE 6.9 mph11.1 kmh 29.97 in1014.9 mb 0.00 in0.0 mm 0.00 in0.0 mm 0.00 in0.0 mm
01:16 AM 72.0°F22.2°C 51.8°F11.0°C 49% 4.9 mph ESE7.9 kmh ESE 5.1 mph8.2 kmh 29.96 in1014.6 mb 0.00 in0.0 mm 0.00 in0.0 mm 0.00 in0.0 mm
01:18 AM 71.8°F22.1°C 51.6°F10.9°C 49% 4.9 mph SE7.9 kmh SE 5.6 mph9.0 kmh 29.96 in1014.6 mb 0.00 in0.0 mm 0.00 in0.0 mm 0.00 in0.0 mm
01:20 AM 71.8°F22.1°C 51.6°F10.9°C 49% 5.1 mph E8.2 kmh E 6.7 mph10.8 kmh 29.96 in1014.6 mb 0.00 in0.0 mm 0.00 in0.0 mm 0.00 in0.0 mm
01:22 AM 72.0°F22.2°C 51.3°F10.7°C 48% 4.7 mph ESE7.6 kmh ESE 6.5 mph10.5 kmh 29.97 in1014.9 mb 0.00 in0.0 mm 0.00 in0.0 mm 0.00 in0.0 mm
01:25 AM 72.1°F22.3°C 51.4°F10.8°C 48% 4.5 mph E7.2 kmh E 5.1 mph8.2 kmh 29.96 in1014.6 mb 0.00 in0.0 mm 0.00 in0.0 mm 0.00 in0.0 mm
01:27 AM 72.0°F22.2°C 51.3°F10.7°C 48% 4.5 mph E7.2 kmh E 4.9 mph7.9 kmh 29.97 in1014.9 mb 0.00 in0.0 mm 0.00 in0.0 mm 0.00 in0.0 mm
01:29 AM 72.0°F22.2°C 51.3°F10.7°C 48% 4.5 mph E7.2 kmh E 6.0 mph9.7 kmh 29.96 in1014.6 mb 0.00 in0.0 mm 0.00 in0.0 mm 0.00 in0.0 mm
01:31 AM 72.3°F22.4°C 51.4°F10.8°C 48% 4.3 mph E6.9 kmh E 5.4 mph8.7 kmh 29.96 in1014.6 mb 0.00 in0.0 mm 0.00 in0.0 mm 0.00 in0.0 mm
01:33 AM 72.5°F22.5°C 51.1°F10.6°C 47% 4.3 mph ESE6.9 kmh ESE 5.1 mph8.2 kmh 29.96 in1014.6 mb 0.00 in0.0 mm 0.00 in0.0 mm 0.00 in0.0 mm
01:36 AM 72.7°F22.6°C 51.3°F10.7°C 47% 4.5 mph E7.2 kmh E 5.4 mph8.7 kmh 29.96 in1014.6 mb 0.00 in0.0 mm 0.00 in0.0 mm 0.00 in0.0 mm
01:38 AM 73.0°F22.8°C 51.1°F10.6°C 46% 3.6 mph ESE5.8 kmh ESE 4.0 mph6.4 kmh 29.96 in1014.6 mb 0.00 in0.0 mm 0.00 in0.0 mm 0.00 in0.0 mm
01:40 AM 73.0°F22.8°C 51.1°F10.6°C 46% 3.8 mph E6.1 kmh E 4.9 mph7.9 kmh 29.96 in1014.6 mb 0.00 in0.0 mm 0.00 in0.0 mm 0.00 in0.0 mm
01:42 AM 72.7°F22.6°C 50.7°F10.4°C 46% 3.1 mph E5.0 kmh E 2.9 mph4.7 kmh 29.96 in1014.6 mb 0.00 in0.0 mm 0.00 in0.0 mm 0.00 in0.0 mm
01:45 AM 73.0°F22.8°C 51.1°F10.6°C 46% 2.9 mph E4.7 kmh E 3.8 mph6.1 kmh 29.96 in1014.6 mb 0.00 in0.0 mm 0.00 in0.0 mm 0.00 in0.0 mm
01:47 AM 73.0°F22.8°C 51.1°F10.6°C 46% 2.2 mph ESE3.5 kmh ESE 2.2 mph3.5 kmh 29.96 in1014.6 mb 0.00 in0.0 mm 0.00 in0.0 mm 0.00 in0.0 mm
01:49 AM 73.2°F22.9°C 51.3°F10.7°C 46% 2.5 mph SE4.0 kmh SE 3.1 mph5.0 kmh 29.96 in1014.6 mb 0.00 in0.0 mm 0.00 in0.0 mm 0.00 in0.0 mm
01:51 AM 73.2°F22.9°C 50.5°F10.3°C 45% 2.7 mph E4.3 kmh E 3.6 mph5.8 kmh 29.96 in1014.6 mb 0.00 in0.0 mm 0.00 in0.0 mm 0.00 in0.0 mm
01:54 AM 73.2°F22.9°C 51.3°F10.7°C 46% 2.7 mph ESE4.3 kmh ESE 3.8 mph6.1 kmh 29.96 in1014.6 mb 0.00 in0.0 mm 0.00 in0.0 mm 0.00 in0.0 mm
01:56 AM 73.0°F22.8°C 51.1°F10.6°C 46% 2.7 mph E4.3 kmh E 3.4 mph5.5 kmh 29.96 in1014.6 mb 0.00 in0.0 mm 0.00 in0.0 mm 0.00 in0.0 mm
01:58 AM 73.0°F22.8°C 51.1°F10.6°C 46% 2.0 mph E3.2 kmh E 2.5 mph4.0 kmh 29.96 in1014.6 mb 0.00 in0.0 mm 0.00 in0.0 mm 0.00 in0.0 mm
02:06 AM 73.2°F22.9°C 50.5°F10.3°C 45% 2.0 mph E3.2 kmh E -- 29.96 in1014.6 mb 0.00 in0.0 mm 0.00 in0.0 mm 0.00 in0.0 mm
02:08 AM 73.0°F22.8°C 50.4°F10.2°C 45% 1.1 mph ESE1.8 kmh ESE 2.0 mph3.2 kmh 29.96 in1014.6 mb 0.00 in0.0 mm 0.00 in0.0 mm 0.00 in0.0 mm
02:10 AM 73.0°F22.8°C 50.4°F10.2°C 45% 1.1 mph SE1.8 kmh SE 1.6 mph2.6 kmh 29.96 in1014.6 mb 0.00 in0.0 mm 0.00 in0.0 mm 0.00 in0.0 mm
02:13 AM 73.2°F22.9°C 50.5°F10.3°C 45% 1.1 mph ESE1.8 kmh ESE 2.0 mph3.2 kmh 29.96 in1014.6 mb 0.00 in0.0 mm 0.00 in0.0 mm 0.00 in0.0 mm
02:15 AM 73.2°F22.9°C 50.5°F10.3°C 45% 1.3 mph ESE2.1 kmh ESE 3.4 mph5.5 kmh 29.96 in1014.6 mb 0.00 in0.0 mm 0.00 in0.0 mm 0.00 in0.0 mm
02:17 AM 73.2°F22.9°C 50.5°F10.3°C 45% 1.1 mph SE1.8 kmh SE 2.5 mph4.0 kmh 29.96 in1014.6 mb 0.00 in0.0 mm 0.00 in0.0 mm 0.00 in0.0 mm
02:19 AM 73.0°F22.8°C 50.4°F10.2°C 45% 1.3 mph ESE2.1 kmh ESE 2.2 mph3.5 kmh 29.96 in1014.6 mb 0.00 in0.0 mm 0.00 in0.0 mm 0.00 in0.0 mm
02:22 AM 73.0°F22.8°C 50.4°F10.2°C 45% 1.8 mph SE2.9 kmh SE 3.1 mph5.0 kmh 29.96 in1014.6 mb 0.00 in0.0 mm 0.00 in0.0 mm 0.00 in0.0 mm
02:24 AM 72.9°F22.7°C 50.4°F10.2°C 45% 2.2 mph ESE3.5 kmh ESE 3.8 mph6.1 kmh 29.96 in1014.6 mb 0.00 in0.0 mm 0.00 in0.0 mm 0.00 in0.0 mm
02:26 AM 72.7°F22.6°C 50.2°F10.1°C 45% 2.5 mph E4.0 kmh E 3.6 mph5.8 kmh 29.96 in1014.6 mb 0.00 in0.0 mm 0.00 in0.0 mm 0.00 in0.0 mm
02:28 AM 72.5°F22.5°C 50.5°F10.3°C 46% 2.7 mph ESE4.3 kmh ESE 3.8 mph6.1 kmh 29.96 in1014.6 mb 0.00 in0.0 mm 0.00 in0.0 mm 0.00 in0.0 mm
02:30 AM 72.3°F22.4°C 50.4°F10.2°C 46% 2.5 mph E4.0 kmh E 2.7 mph4.3 kmh 29.96 in1014.6 mb 0.00 in0.0 mm 0.00 in0.0 mm 0.00 in0.0 mm
02:33 AM 72.3°F22.4°C 50.4°F10.2°C 46% 2.5 mph SSE4.0 kmh SSE 3.4 mph5.5 kmh 29.96 in1014.6 mb 0.00 in0.0 mm 0.00 in0.0 mm 0.00 in0.0 mm
02:35 AM 72.1°F22.3°C 50.2°F10.1°C 46% 2.5 mph SE4.0 kmh SE 4.0 mph6.4 kmh 29.96 in1014.6 mb 0.00 in0.0 mm 0.00 in0.0 mm 0.00 in0.0 mm
02:37 AM 72.3°F22.4°C 50.4°F10.2°C 46% 2.5 mph ESE4.0 kmh ESE 3.6 mph5.8 kmh 29.96 in1014.6 mb 0.00 in0.0 mm 0.00 in0.0 mm 0.00 in0.0 mm
02:39 AM 72.3°F22.4°C 50.4°F10.2°C 46% 2.5 mph E4.0 kmh E 3.6 mph5.8 kmh 29.96 in1014.6 mb 0.00 in0.0 mm 0.00 in0.0 mm 0.00 in0.0 mm
02:41 AM 72.3°F22.4°C 50.4°F10.2°C 46% 2.2 mph E3.5 kmh E 3.1 mph5.0 kmh 29.96 in1014.6 mb 0.00 in0.0 mm 0.00 in0.0 mm 0.00 in0.0 mm
02:44 AM 72.3°F22.4°C 50.4°F10.2°C 46% 2.0 mph ESE3.2 kmh ESE 3.8 mph6.1 kmh 29.96 in1014.6 mb 0.00 in0.0 mm 0.00 in0.0 mm 0.00 in0.0 mm
02:46 AM 72.1°F22.3°C 50.2°F10.1°C 46% 2.2 mph SE3.5 kmh SE 3.8 mph6.1 kmh 29.96 in1014.6 mb 0.00 in0.0 mm 0.00 in0.0 mm 0.00 in0.0 mm
02:48 AM 72.3°F22.4°C 50.4°F10.2°C 46% 2.5 mph SE4.0 kmh SE 3.6 mph5.8 kmh 29.96 in1014.6 mb 0.00 in0.0 mm 0.00 in0.0 mm 0.00 in0.0 mm
02:50 AM 72.3°F22.4°C 50.4°F10.2°C 46% 3.1 mph SE5.0 kmh SE 4.3 mph6.9 kmh 29.96 in1014.6 mb 0.00 in0.0 mm 0.00 in0.0 mm 0.00 in0.0 mm
02:52 AM 72.5°F22.5°C 50.5°F10.3°C 46% 2.9 mph SE4.7 kmh SE 4.5 mph7.2 kmh 29.96 in1014.6 mb 0.00 in0.0 mm 0.00 in0.0 mm 0.00 in0.0 mm
02:54 AM 72.7°F22.6°C 50.7°F10.4°C 46% 2.7 mph ESE4.3 kmh ESE 4.0 mph6.4 kmh 29.96 in1014.6 mb 0.00 in0.0 mm 0.00 in0.0 mm 0.00 in0.0 mm
02:56 AM 72.5°F22.5°C 50.5°F10.3°C 46% 2.5 mph ESE4.0 kmh ESE 3.4 mph5.5 kmh 29.96 in1014.6 mb 0.00 in0.0 mm 0.00 in0.0 mm 0.00 in0.0 mm
02:59 AM 72.5°F22.5°C 50.5°F10.3°C 46% 2.7 mph SE4.3 kmh SE 3.8 mph6.1 kmh 29.96 in1014.6 mb 0.00 in0.0 mm 0.00 in0.0 mm 0.00 in0.0 mm
03:01 AM 72.3°F22.4°C 50.4°F10.2°C 46% 2.7 mph ESE4.3 kmh ESE 3.8 mph6.1 kmh 29.97 in1014.9 mb 0.00 in0.0 mm 0.00 in0.0 mm 0.00 in0.0 mm
03:03 AM 72.1°F22.3°C 50.2°F10.1°C 46% 2.7 mph SE4.3 kmh SE 2.9 mph4.7 kmh 29.96 in1014.6 mb 0.00 in0.0 mm 0.00 in0.0 mm 0.00 in0.0 mm
03:05 AM 72.1°F22.3°C 50.2°F10.1°C 46% 2.7 mph ESE4.3 kmh ESE 3.4 mph5.5 kmh 29.96 in1014.6 mb 0.00 in0.0 mm 0.00 in0.0 mm 0.00 in0.0 mm
03:07 AM 72.1°F22.3°C 50.2°F10.1°C 46% 2.5 mph ESE4.0 kmh ESE 3.8 mph6.1 kmh 29.96 in1014.6 mb 0.00 in0.0 mm 0.00 in0.0 mm 0.00 in0.0 mm
03:09 AM 72.1°F22.3°C 50.2°F10.1°C 46% 2.5 mph SE4.0 kmh SE 2.9 mph4.7 kmh 29.96 in1014.6 mb 0.00 in0.0 mm 0.00 in0.0 mm 0.00 in0.0 mm
03:12 AM 71.8°F22.1°C 49.8°F9.9°C 46% 2.2 mph ENE3.5 kmh ENE 2.7 mph4.3 kmh 29.96 in1014.6 mb 0.00 in0.0 mm 0.00 in0.0 mm 0.00 in0.0 mm
03:14 AM 71.8°F22.1°C 50.5°F10.3°C 47% 1.3 mph ESE2.1 kmh ESE 1.3 mph2.1 kmh 29.96 in1014.6 mb 0.00 in0.0 mm 0.00 in0.0 mm 0.00 in0.0 mm
03:16 AM 71.4°F21.9°C 50.2°F10.1°C 47% 0.9 mph E1.4 kmh E 0.9 mph1.4 kmh 29.96 in1014.6 mb 0.00 in0.0 mm 0.00 in0.0 mm 0.00 in0.0 mm
03:18 AM 71.4°F21.9°C 50.2°F10.1°C 47% 0.9 mph NE1.4 kmh NE 1.6 mph2.6 kmh 29.96 in1014.6 mb 0.00 in0.0 mm 0.00 in0.0 mm 0.00 in0.0 mm
03:20 AM 71.6°F22.0°C 50.4°F10.2°C 47% 1.8 mph SE2.9 kmh SE 4.0 mph6.4 kmh 29.96 in1014.6 mb 0.00 in0.0 mm 0.00 in0.0 mm 0.00 in0.0 mm
03:22 AM 71.8°F22.1°C 50.5°F10.3°C 47% 1.8 mph ESE2.9 kmh ESE 2.5 mph4.0 kmh 29.96 in1014.6 mb 0.00 in0.0 mm 0.00 in0.0 mm 0.00 in0.0 mm
03:24 AM 72.0°F22.2°C 50.7°F10.4°C 47% 1.8 mph E2.9 kmh E 3.6 mph5.8 kmh 29.97 in1014.9 mb 0.00 in0.0 mm 0.00 in0.0 mm 0.00 in0.0 mm
03:27 AM 72.1°F22.3°C 50.2°F10.1°C 46% 1.1 mph ESE1.8 kmh ESE 1.6 mph2.6 kmh 29.96 in1014.6 mb 0.00 in0.0 mm 0.00 in0.0 mm 0.00 in0.0 mm
03:29 AM 72.1°F22.3°C 50.2°F10.1°C 46% 2.0 mph ESE3.2 kmh ESE 4.5 mph7.2 kmh 29.96 in1014.6 mb 0.00 in0.0 mm 0.00 in0.0 mm 0.00 in0.0 mm
03:31 AM 72.3°F22.4°C 50.4°F10.2°C 46% 2.5 mph SE4.0 kmh SE 5.1 mph8.2 kmh 29.97 in1014.9 mb 0.00 in0.0 mm 0.00 in0.0 mm 0.00 in0.0 mm
03:33 AM 72.3°F22.4°C 50.4°F10.2°C 46% 2.5 mph SSE4.0 kmh SSE 4.7 mph7.6 kmh 29.96 in1014.6 mb 0.00 in0.0 mm 0.00 in0.0 mm 0.00 in0.0 mm
03:35 AM 72.3°F22.4°C 50.4°F10.2°C 46% 3.1 mph ESE5.0 kmh ESE 5.6 mph9.0 kmh 29.96 in1014.6 mb 0.00 in0.0 mm 0.00 in0.0 mm 0.00 in0.0 mm
03:38 AM 72.1°F22.3°C 50.2°F10.1°C 46% 2.7 mph E4.3 kmh E 3.1 mph5.0 kmh 29.96 in1014.6 mb 0.00 in0.0 mm 0.00 in0.0 mm 0.00 in0.0 mm
03:40 AM 72.0°F22.2°C 50.7°F10.4°C 47% 2.7 mph ESE4.3 kmh ESE 4.5 mph7.2 kmh 29.96 in1014.6 mb 0.00 in0.0 mm 0.00 in0.0 mm 0.00 in0.0 mm
03:42 AM 71.8°F22.1°C 50.5°F10.3°C 47% 2.7 mph SE4.3 kmh SE 3.6 mph5.8 kmh 29.96 in1014.6 mb 0.00 in0.0 mm 0.00 in0.0 mm 0.00 in0.0 mm
03:44 AM 71.8°F22.1°C 50.5°F10.3°C 47% 2.5 mph E4.0 kmh E 3.6 mph5.8 kmh 29.96 in1014.6 mb 0.00 in0.0 mm 0.00 in0.0 mm 0.00 in0.0 mm
03:46 AM 71.8°F22.1°C 50.5°F10.3°C 47% 2.5 mph ESE4.0 kmh ESE 3.4 mph5.5 kmh 29.96 in1014.6 mb 0.00 in0.0 mm 0.00 in0.0 mm 0.00 in0.0 mm
03:48 AM 71.8°F22.1°C 50.5°F10.3°C 47% 3.8 mph ESE6.1 kmh ESE 6.3 mph10.1 kmh 29.96 in1014.6 mb 0.00 in0.0 mm 0.00 in0.0 mm 0.00 in0.0 mm
03:51 AM 72.0°F22.2°C 50.7°F10.4°C 47% 2.9 mph SE4.7 kmh SE 5.4 mph8.7 kmh 29.96 in1014.6 mb 0.00 in0.0 mm 0.00 in0.0 mm 0.00 in0.0 mm
03:53 AM 72.0°F22.2°C 50.7°F10.4°C 47% 2.5 mph E4.0 kmh E 2.7 mph4.3 kmh 29.96 in1014.6 mb 0.00 in0.0 mm 0.00 in0.0 mm 0.00 in0.0 mm
03:55 AM 72.0°F22.2°C 50.7°F10.4°C 47% 2.2 mph E3.5 kmh E 2.7 mph4.3 kmh 29.96 in1014.6 mb 0.00 in0.0 mm 0.00 in0.0 mm 0.00 in0.0 mm
03:57 AM 71.8°F22.1°C 50.5°F10.3°C 47% 2.9 mph ESE4.7 kmh ESE 4.9 mph7.9 kmh 29.97 in1014.9 mb 0.00 in0.0 mm 0.00 in0.0 mm 0.00 in0.0 mm
04:00 AM 72.0°F22.2°C 50.7°F10.4°C 47% 3.8 mph ENE6.1 kmh ENE 6.5 mph10.5 kmh 29.97 in1014.9 mb 0.00 in0.0 mm 0.00 in0.0 mm 0.00 in0.0 mm
04:02 AM 72.1°F22.3°C 50.7°F10.4°C 47% 2.9 mph E4.7 kmh E 2.9 mph4.7 kmh 29.96 in1014.6 mb 0.00 in0.0 mm 0.00 in0.0 mm 0.00 in0.0 mm
04:04 AM 72.0°F22.2°C 50.7°F10.4°C 47% 2.5 mph SE4.0 kmh SE 3.6 mph5.8 kmh 29.96 in1014.6 mb 0.00 in0.0 mm 0.00 in0.0 mm 0.00 in0.0 mm
04:06 AM 72.0°F22.2°C 50.7°F10.4°C 47% 1.8 mph ESE2.9 kmh ESE 2.0 mph3.2 kmh 29.96 in1014.6 mb 0.00 in0.0 mm 0.00 in0.0 mm 0.00 in0.0 mm
04:08 AM 71.8°F22.1°C 50.5°F10.3°C 47% 2.0 mph E3.2 kmh E 2.9 mph4.7 kmh 29.97 in1014.9 mb 0.00 in0.0 mm 0.00 in0.0 mm 0.00 in0.0 mm
04:10 AM 71.8°F22.1°C 50.5°F10.3°C 47% 2.0 mph E3.2 kmh E 3.4 mph5.5 kmh 29.97 in1014.9 mb 0.00 in0.0 mm 0.00 in0.0 mm 0.00 in0.0 mm
04:13 AM 71.6°F22.0°C 50.4°F10.2°C 47% 2.2 mph E3.5 kmh E 2.9 mph4.7 kmh 29.96 in1014.6 mb 0.00 in0.0 mm 0.00 in0.0 mm 0.00 in0.0 mm
04:15 AM 71.4°F21.9°C 50.7°F10.4°C 48% 2.5 mph SE4.0 kmh SE 3.1 mph5.0 kmh 29.96 in1014.6 mb 0.00 in0.0 mm 0.00 in0.0 mm 0.00 in0.0 mm
04:17 AM 71.4°F21.9°C 50.7°F10.4°C 48% 2.5 mph ESE4.0 kmh ESE 3.8 mph6.1 kmh 29.96 in1014.6 mb 0.00 in0.0 mm 0.00 in0.0 mm 0.00 in0.0 mm
04:19 AM 71.4°F21.9°C 50.7°F10.4°C 48% 2.0 mph E3.2 kmh E 3.1 mph5.0 kmh 29.97 in1014.9 mb 0.00 in0.0 mm 0.00 in0.0 mm 0.00 in0.0 mm
04:21 AM 71.2°F21.8°C 50.5°F10.3°C 48% 2.5 mph E4.0 kmh E 3.1 mph5.0 kmh 29.97 in1014.9 mb 0.00 in0.0 mm 0.00 in0.0 mm 0.00 in0.0 mm
04:23 AM 71.1°F21.7°C 50.4°F10.2°C 48% 2.2 mph E3.5 kmh E 3.1 mph5.0 kmh 29.97 in1014.9 mb 0.00 in0.0 mm 0.00 in0.0 mm 0.00 in0.0 mm
04:26 AM 70.9°F21.6°C 50.2°F10.1°C 48% 2.2 mph E3.5 kmh E 2.9 mph4.7 kmh 29.97 in1014.9 mb 0.00 in0.0 mm 0.00 in0.0 mm 0.00 in0.0 mm
04:28 AM 70.9°F21.6°C 50.2°F10.1°C 48% 2.5 mph E4.0 kmh E 4.0 mph6.4 kmh 29.97 in1014.9 mb 0.00 in0.0 mm 0.00 in0.0 mm 0.00 in0.0 mm
04:30 AM 71.1°F21.7°C 50.4°F10.2°C 48% 2.2 mph ESE3.5 kmh ESE 2.9 mph4.7 kmh 29.97 in1014.9 mb 0.00 in0.0 mm 0.00 in0.0 mm 0.00 in0.0 mm
04:33 AM 70.9°F21.6°C 50.7°F10.4°C 49% 2.7 mph E4.3 kmh E 3.6 mph5.8 kmh 29.97 in1014.9 mb 0.00 in0.0 mm 0.00 in0.0 mm 0.00 in0.0 mm
04:35 AM 70.9°F21.6°C 50.7°F10.4°C 49% 2.9 mph ESE4.7 kmh ESE 3.6 mph5.8 kmh 29.97 in1014.9 mb 0.00 in0.0 mm 0.00 in0.0 mm 0.00 in0.0 mm
04:37 AM 70.9°F21.6°C 50.7°F10.4°C 49% 3.1 mph E5.0 kmh E 4.3 mph6.9 kmh 29.97 in1014.9 mb 0.00 in0.0 mm 0.00 in0.0 mm 0.00 in0.0 mm
04:39 AM 70.9°F21.6°C 50.7°F10.4°C 49% 2.7 mph E4.3 kmh E 2.2 mph3.5 kmh 29.97 in1014.9 mb 0.00 in0.0 mm 0.00 in0.0 mm 0.00 in0.0 mm
04:41 AM 70.9°F21.6°C 50.7°F10.4°C 49% 2.2 mph E3.5 kmh E 2.5 mph4.0 kmh 29.97 in1014.9 mb 0.00 in0.0 mm 0.00 in0.0 mm 0.00 in0.0 mm
04:44 AM 70.9°F21.6°C 50.7°F10.4°C 49% 2.5 mph E4.0 kmh E 3.1 mph5.0 kmh 29.97 in1014.9 mb 0.00 in0.0 mm 0.00 in0.0 mm 0.00 in0.0 mm
04:46 AM 71.2°F21.8°C 51.1°F10.6°C 49% 2.0 mph E3.2 kmh E 2.7 mph4.3 kmh 29.97 in1014.9 mb 0.00 in0.0 mm 0.00 in0.0 mm 0.00 in0.0 mm
04:48 AM 71.4°F21.9°C 51.3°F10.7°C 49% 2.0 mph E3.2 kmh E 2.7 mph4.3 kmh 29.97 in1014.9 mb 0.00 in0.0 mm 0.00 in0.0 mm 0.00 in0.0 mm
04:50 AM 71.8°F22.1°C 51.6°F10.9°C 49% 1.8 mph ENE2.9 kmh ENE 2.0 mph3.2 kmh 29.97 in1014.9 mb 0.00 in0.0 mm 0.00 in0.0 mm 0.00 in0.0 mm
04:53 AM 71.8°F22.1°C 51.6°F10.9°C 49% 1.8 mph E2.9 kmh E 2.2 mph3.5 kmh 29.97 in1014.9 mb 0.00 in0.0 mm 0.00 in0.0 mm 0.00 in0.0 mm
04:55 AM 72.0°F22.2°C 51.8°F11.0°C 49% 1.8 mph ENE2.9 kmh ENE 2.0 mph3.2 kmh 29.97 in1014.9 mb 0.00 in0.0 mm 0.00 in0.0 mm 0.00 in0.0 mm
04:57 AM 72.0°F22.2°C 51.8°F11.0°C 49% 1.8 mph E2.9 kmh E 2.0 mph3.2 kmh 29.97 in1014.9 mb 0.00 in0.0 mm 0.00 in0.0 mm 0.00 in0.0 mm
04:59 AM 72.0°F22.2°C 51.8°F11.0°C 49% 1.6 mph E2.6 kmh E 2.0 mph3.2 kmh 29.97 in1014.9 mb 0.00 in0.0 mm 0.00 in0.0 mm 0.00 in0.0 mm
05:01 AM 72.0°F22.2°C 51.8°F11.0°C 49% 2.0 mph ENE3.2 kmh ENE 3.1 mph5.0 kmh 29.97 in1014.9 mb 0.00 in0.0 mm 0.00 in0.0 mm 0.00 in0.0 mm
05:04 AM 71.8°F22.1°C 51.6°F10.9°C 49% 2.2 mph ENE3.5 kmh ENE 3.4 mph5.5 kmh 29.98 in1015.2 mb 0.00 in0.0 mm 0.00 in0.0 mm 0.00 in0.0 mm
05:06 AM 72.0°F22.2°C 51.8°F11.0°C 49% 2.0 mph E3.2 kmh E 1.8 mph2.9 kmh 29.98 in1015.2 mb 0.00 in0.0 mm 0.00 in0.0 mm 0.00 in0.0 mm
05:08 AM 72.1°F22.3°C 52.0°F11.1°C 49% 2.0 mph E3.2 kmh E 2.5 mph4.0 kmh 29.98 in1015.2 mb 0.00 in0.0 mm 0.00 in0.0 mm 0.00 in0.0 mm
05:10 AM 72.1°F22.3°C 52.5°F11.4°C 50% 2.2 mph E3.5 kmh E 2.5 mph4.0 kmh 29.98 in1015.2 mb 0.00 in0.0 mm 0.00 in0.0 mm 0.00 in0.0 mm
05:12 AM 72.3°F22.4°C 52.7°F11.5°C 50% 2.2 mph E3.5 kmh E 3.6 mph5.8 kmh 29.97 in1014.9 mb 0.00 in0.0 mm 0.00 in0.0 mm 0.00 in0.0 mm
05:14 AM 72.3°F22.4°C 52.7°F11.5°C 50% 2.0 mph E3.2 kmh E 2.2 mph3.5 kmh 29.98 in1015.2 mb 0.00 in0.0 mm 0.00 in0.0 mm 0.00 in0.0 mm
05:16 AM 72.3°F22.4°C 52.7°F11.5°C 50% 1.6 mph E2.6 kmh E 1.8 mph2.9 kmh 29.98 in1015.2 mb 0.00 in0.0 mm 0.00 in0.0 mm 0.00 in0.0 mm
05:19 AM 72.3°F22.4°C 52.7°F11.5°C 50% 1.3 mph E2.1 kmh E 2.5 mph4.0 kmh 29.98 in1015.2 mb 0.00 in0.0 mm 0.00 in0.0 mm 0.00 in0.0 mm
05:21 AM 72.3°F22.4°C 52.7°F11.5°C 50% 0.9 mph ENE1.4 kmh ENE 2.0 mph3.2 kmh 29.98 in1015.2 mb 0.00 in0.0 mm 0.00 in0.0 mm 0.00 in0.0 mm
05:23 AM 72.5°F22.5°C 52.9°F11.6°C 50% 0.4 mph 0.6 kmh 0.7 mph1.1 kmh 29.97 in1014.9 mb 0.00 in0.0 mm 0.00 in0.0 mm 0.00 in0.0 mm
05:26 AM 72.5°F22.5°C 52.9°F11.6°C 50% 0.2 mph NW0.3 kmh NW -- 29.98 in1015.2 mb 0.00 in0.0 mm 0.00 in0.0 mm 0.00 in0.0 mm
05:28 AM 72.3°F22.4°C 52.7°F11.5°C 50% 0.4 mph NNE0.6 kmh NNE 1.1 mph1.8 kmh 29.98 in1015.2 mb 0.00 in0.0 mm 0.00 in0.0 mm 0.00 in0.0 mm
05:30 AM 72.3°F22.4°C 52.7°F11.5°C 50% 0.4 mph 0.6 kmh 0.9 mph1.4 kmh 29.98 in1015.2 mb 0.00 in0.0 mm 0.00 in0.0 mm 0.00 in0.0 mm
05:32 AM 72.3°F22.4°C 52.7°F11.5°C 50% 0.2 mph 0.3 kmh 0.7 mph1.1 kmh 29.98 in1015.2 mb 0.00 in0.0 mm 0.00 in0.0 mm 0.00 in0.0 mm
05:34 AM 72.1°F22.3°C 52.5°F11.4°C 50% 0.2 mph 0.3 kmh 0.9 mph1.4 kmh 29.98 in1015.2 mb 0.00 in0.0 mm 0.00 in0.0 mm 0.00 in0.0 mm
05:37 AM 72.1°F22.3°C 52.5°F11.4°C 50% 0.2 mph 0.3 kmh -- 29.98 in1015.2 mb 0.00 in0.0 mm 0.00 in0.0 mm 0.00 in0.0 mm
05:39 AM 72.1°F22.3°C 52.5°F11.4°C 50% 0.2 mph NNW0.3 kmh NNW -- 29.98 in1015.2 mb 0.00 in0.0 mm 0.00 in0.0 mm 0.00 in0.0 mm
05:41 AM 72.1°F22.3°C 52.5°F11.4°C 50% 0.2 mph NNW0.3 kmh NNW -- 29.98 in1015.2 mb 0.00 in0.0 mm 0.00 in0.0 mm 0.00 in0.0 mm
05:43 AM 72.3°F22.4°C 52.2°F11.2°C 49% 0.2 mph 0.3 kmh -- 29.98 in1015.2 mb 0.00 in0.0 mm 0.00 in0.0 mm 0.00 in0.0 mm
05:46 AM 72.3°F22.4°C 52.2°F11.2°C 49% 0.4 mph WSW0.6 kmh WSW 1.6 mph2.6 kmh 29.98 in1015.2 mb 0.00 in0.0 mm 0.00 in0.0 mm 0.00 in0.0 mm
05:48 AM 72.3°F22.4°C 52.7°F11.5°C 50% 0.9 mph S1.4 kmh S 2.0 mph3.2 kmh 29.98 in1015.2 mb 0.00 in0.0 mm 0.00 in0.0 mm 0.00 in0.0 mm
05:50 AM 72.3°F22.4°C 52.7°F11.5°C 50% 0.7 mph SSW1.1 kmh SSW 1.1 mph1.8 kmh 29.98 in1015.2 mb 0.00 in0.0 mm 0.00 in0.0 mm 0.00 in0.0 mm
05:52 AM 72.3°F22.4°C 52.7°F11.5°C 50% 0.7 mph E1.1 kmh E 2.0 mph3.2 kmh 29.99 in1015.6 mb 0.00 in0.0 mm 0.00 in0.0 mm 0.00 in0.0 mm
05:54 AM 72.5°F22.5°C 52.9°F11.6°C 50% 0.7 mph E1.1 kmh E 1.6 mph2.6 kmh 29.99 in1015.6 mb 0.00 in0.0 mm 0.00 in0.0 mm 0.00 in0.0 mm
05:57 AM 72.5°F22.5°C 52.9°F11.6°C 50% 0.7 mph NE1.1 kmh NE 1.3 mph2.1 kmh 29.99 in1015.6 mb 0.00 in0.0 mm 0.00 in0.0 mm 0.00 in0.0 mm
05:59 AM 72.5°F22.5°C 52.9°F11.6°C 50% 0.7 mph E1.1 kmh E 1.3 mph2.1 kmh 29.99 in1015.6 mb 0.00 in0.0 mm 0.00 in0.0 mm 0.00 in0.0 mm
06:01 AM 72.5°F22.5°C 53.4°F11.9°C 51% 0.4 mph ENE0.6 kmh ENE -- 29.98 in1015.2 mb 0.00 in0.0 mm 0.00 in0.0 mm 0.00 in0.0 mm
06:03 AM 72.7°F22.6°C 53.4°F11.9°C 51% 0.2 mph NE0.3 kmh NE 0.9 mph1.4 kmh 29.98 in1015.2 mb 0.00 in0.0 mm 0.00 in0.0 mm 0.00 in0.0 mm
06:05 AM 72.7°F22.6°C 53.4°F11.9°C 51% 0.4 mph ENE0.6 kmh ENE 1.6 mph2.6 kmh 29.99 in1015.6 mb 0.00 in0.0 mm 0.00 in0.0 mm 0.00 in0.0 mm
06:08 AM 72.9°F22.7°C 53.6°F12.0°C 51% 0.4 mph ENE0.6 kmh ENE 1.3 mph2.1 kmh 29.99 in1015.6 mb 0.00 in0.0 mm 0.00 in0.0 mm 0.00 in0.0 mm
06:10 AM 73.0°F22.8°C 53.8°F12.1°C 51% 0.4 mph NNW0.6 kmh NNW 1.3 mph2.1 kmh 29.99 in1015.6 mb 0.00 in0.0 mm 0.00 in0.0 mm 0.00 in0.0 mm
06:12 AM 73.0°F22.8°C 53.8°F12.1°C 51% 0.7 mph NNE1.1 kmh NNE 2.0 mph3.2 kmh 29.99 in1015.6 mb 0.00 in0.0 mm 0.00 in0.0 mm 0.00 in0.0 mm
06:14 AM 73.0°F22.8°C 53.8°F12.1°C 51% 0.7 mph NNE1.1 kmh NNE 1.8 mph2.9 kmh 29.99 in1015.6 mb 0.00 in0.0 mm 0.00 in0.0 mm 0.00 in0.0 mm
06:17 AM 73.2°F22.9°C 54.5°F12.5°C 52% 1.1 mph NNE1.8 kmh NNE 2.2 mph3.5 kmh 29.99 in1015.6 mb 0.00 in0.0 mm 0.00 in0.0 mm 0.00 in0.0 mm
06:19 AM 73.2°F22.9°C 54.5°F12.5°C 52% 1.3 mph NNE2.1 kmh NNE 3.4 mph5.5 kmh 29.99 in1015.6 mb 0.00 in0.0 mm 0.00 in0.0 mm 0.00 in0.0 mm
06:21 AM 73.2°F22.9°C 54.5°F12.5°C 52% 0.9 mph 1.4 kmh 1.3 mph2.1 kmh 29.99 in1015.6 mb 0.00 in0.0 mm 0.00 in0.0 mm 0.00 in0.0 mm
06:23 AM 73.4°F23.0°C 54.1°F12.3°C 51% 0.4 mph NE0.6 kmh NE -- 29.99 in1015.6 mb 0.00 in0.0 mm 0.00 in0.0 mm 0.00 in0.0 mm
06:26 AM 73.6°F23.1°C 54.3°F12.4°C 51% 0.2 mph NW0.3 kmh NW -- 29.99 in1015.6 mb 0.00 in0.0 mm 0.00 in0.0 mm 0.00 in0.0 mm
06:28 AM 73.6°F23.1°C 54.3°F12.4°C 51% 0.4 mph 0.6 kmh 1.6 mph2.6 kmh 29.99 in1015.6 mb 0.00 in0.0 mm 0.00 in0.0 mm 0.00 in0.0 mm
06:30 AM 73.8°F23.2°C 54.5°F12.5°C 51% 0.2 mph NNE0.3 kmh NNE 0.9 mph1.4 kmh 29.99 in1015.6 mb 0.00 in0.0 mm 0.00 in0.0 mm 0.00 in0.0 mm
06:32 AM 73.8°F23.2°C 54.0°F12.2°C 50% 0.7 mph NE1.1 kmh NE 2.0 mph3.2 kmh 30.00 in1015.9 mb 0.00 in0.0 mm 0.00 in0.0 mm 0.00 in0.0 mm
06:34 AM 74.1°F23.4°C 54.9°F12.7°C 51% 0.4 mph NNE0.6 kmh NNE 0.9 mph1.4 kmh 30.00 in1015.9 mb 0.00 in0.0 mm 0.00 in0.0 mm 0.00 in0.0 mm
06:36 AM 74.1°F23.4°C 54.9°F12.7°C 51% 1.3 mph SSE2.1 kmh SSE 6.0 mph9.7 kmh 30.00 in1015.9 mb 0.00 in0.0 mm 0.00 in0.0 mm 0.00 in0.0 mm
06:39 AM 74.5°F23.6°C 55.2°F12.9°C 51% 2.2 mph NNE3.5 kmh NNE 4.0 mph6.4 kmh 30.00 in1015.9 mb 0.00 in0.0 mm 0.00 in0.0 mm 0.00 in0.0 mm
06:41 AM 74.8°F23.8°C 55.0°F12.8°C 50% 2.0 mph E3.2 kmh E 5.4 mph8.7 kmh 30.00 in1015.9 mb 0.00 in0.0 mm 0.00 in0.0 mm 0.00 in0.0 mm
06:43 AM 74.8°F23.8°C 55.0°F12.8°C 50% 5.1 mph ESE8.2 kmh ESE 15.0 mph24.1 kmh 29.99 in1015.6 mb 0.00 in0.0 mm 0.00 in0.0 mm 0.00 in0.0 mm
06:45 AM 75.2°F24.0°C 54.7°F12.6°C 49% 5.1 mph E8.2 kmh E 14.3 mph23.0 kmh 30.00 in1015.9 mb 0.00 in0.0 mm 0.00 in0.0 mm 0.00 in0.0 mm
06:48 AM 75.4°F24.1°C 54.9°F12.7°C 49% 5.4 mph ESE8.7 kmh ESE 9.4 mph15.1 kmh 30.00 in1015.9 mb 0.00 in0.0 mm 0.00 in0.0 mm 0.00 in0.0 mm
06:50 AM 75.6°F24.2°C 54.5°F12.5°C 48% 6.5 mph ESE10.5 kmh ESE 11.6 mph18.7 kmh 30.00 in1015.9 mb 0.00 in0.0 mm 0.00 in0.0 mm 0.00 in0.0 mm
06:52 AM 75.6°F24.2°C 54.5°F12.5°C 48% 6.5 mph ESE10.5 kmh ESE 9.6 mph15.4 kmh 30.00 in1015.9 mb 0.00 in0.0 mm 0.00 in0.0 mm 0.00 in0.0 mm
06:54 AM 75.9°F24.4°C 54.9°F12.7°C 48% 5.8 mph SSE9.3 kmh SSE 7.6 mph12.2 kmh 30.00 in1015.9 mb 0.00 in0.0 mm 0.00 in0.0 mm 0.00 in0.0 mm
06:57 AM 75.7°F24.3°C 54.7°F12.6°C 48% 7.2 mph ENE11.6 kmh ENE 10.7 mph17.2 kmh 30.00 in1015.9 mb 0.00 in0.0 mm 0.00 in0.0 mm 0.00 in0.0 mm
06:59 AM 75.7°F24.3°C 54.7°F12.6°C 48% 6.7 mph E10.8 kmh E 10.7 mph17.2 kmh 30.00 in1015.9 mb 0.00 in0.0 mm 0.00 in0.0 mm 0.00 in0.0 mm
07:01 AM 75.9°F24.4°C 54.9°F12.7°C 48% 6.3 mph NE10.1 kmh NE 8.3 mph13.4 kmh 30.00 in1015.9 mb 0.00 in0.0 mm 0.00 in0.0 mm 0.00 in0.0 mm
07:03 AM 75.9°F24.4°C 54.9°F12.7°C 48% 6.0 mph ESE9.7 kmh ESE 7.6 mph12.2 kmh 30.00 in1015.9 mb 0.00 in0.0 mm 0.00 in0.0 mm 0.00 in0.0 mm
07:05 AM 75.9°F24.4°C 54.9°F12.7°C 48% 6.3 mph E10.1 kmh E 7.8 mph12.6 kmh 30.00 in1015.9 mb 0.00 in0.0 mm 0.00 in0.0 mm 0.00 in0.0 mm
07:08 AM 75.9°F24.4°C 54.9°F12.7°C 48% 6.9 mph ENE11.1 kmh ENE 10.3 mph16.6 kmh 30.00 in1015.9 mb 0.00 in0.0 mm 0.00 in0.0 mm 0.00 in0.0 mm
07:10 AM 75.9°F24.4°C 54.9°F12.7°C 48% 6.9 mph E11.1 kmh E 10.7 mph17.2 kmh 30.00 in1015.9 mb 0.00 in0.0 mm 0.00 in0.0 mm 0.00 in0.0 mm
07:12 AM 76.1°F24.5°C 55.0°F12.8°C 48% 7.2 mph E11.6 kmh E 11.4 mph18.3 kmh 30.00 in1015.9 mb 0.00 in0.0 mm 0.00 in0.0 mm 0.00 in0.0 mm
07:14 AM 76.1°F24.5°C 55.0°F12.8°C 48% 6.3 mph E10.1 kmh E 7.6 mph12.2 kmh 30.00 in1015.9 mb 0.00 in0.0 mm 0.00 in0.0 mm 0.00 in0.0 mm
07:16 AM 76.3°F24.6°C 55.2°F12.9°C 48% 5.6 mph E9.0 kmh E 9.2 mph14.8 kmh 30.00 in1015.9 mb 0.00 in0.0 mm 0.00 in0.0 mm 0.00 in0.0 mm
07:19 AM 76.6°F24.8°C 55.4°F13.0°C 48% 4.7 mph ESE7.6 kmh ESE 4.7 mph7.6 kmh 30.00 in1015.9 mb 0.00 in0.0 mm 0.00 in0.0 mm 0.00 in0.0 mm
07:21 AM 76.8°F24.9°C 55.0°F12.8°C 47% 4.9 mph E7.9 kmh E 6.3 mph10.1 kmh 30.00 in1015.9 mb 0.00 in0.0 mm 0.00 in0.0 mm 0.00 in0.0 mm
07:23 AM 76.8°F24.9°C 55.0°F12.8°C 47% 4.3 mph ENE6.9 kmh ENE 6.9 mph11.1 kmh 30.00 in1015.9 mb 0.00 in0.0 mm 0.00 in0.0 mm 0.00 in0.0 mm
07:25 AM 77.2°F25.1°C 55.9°F13.3°C 48% 3.6 mph E5.8 kmh E 5.6 mph9.0 kmh 30.01 in1016.3 mb 0.00 in0.0 mm 0.00 in0.0 mm 0.00 in0.0 mm
07:28 AM 77.4°F25.2°C 55.6°F13.1°C 47% 3.6 mph ESE5.8 kmh ESE 6.5 mph10.5 kmh 30.00 in1015.9 mb 0.00 in0.0 mm 0.00 in0.0 mm 0.00 in0.0 mm
07:30 AM 77.5°F25.3°C 55.8°F13.2°C 47% 3.6 mph ENE5.8 kmh ENE 4.7 mph7.6 kmh 30.01 in1016.3 mb 0.00 in0.0 mm 0.00 in0.0 mm 0.00 in0.0 mm
07:32 AM 77.7°F25.4°C 56.5°F13.6°C 48% 3.1 mph NE5.0 kmh NE 3.6 mph5.8 kmh 30.01 in1016.3 mb 0.00 in0.0 mm 0.00 in0.0 mm 0.00 in0.0 mm
07:34 AM 77.9°F25.5°C 56.7°F13.7°C 48% 3.1 mph ENE5.0 kmh ENE 6.5 mph10.5 kmh 30.01 in1016.3 mb 0.00 in0.0 mm 0.00 in0.0 mm 0.00 in0.0 mm
07:36 AM 78.1°F25.6°C 56.8°F13.8°C 48% 3.8 mph NE6.1 kmh NE 8.1 mph13.0 kmh 30.01 in1016.3 mb 0.00 in0.0 mm 0.00 in0.0 mm 0.00 in0.0 mm
07:39 AM 78.4°F25.8°C 56.5°F13.6°C 47% 3.1 mph NE5.0 kmh NE 4.0 mph6.4 kmh 30.01 in1016.3 mb 0.00 in0.0 mm 0.00 in0.0 mm 0.00 in0.0 mm
07:41 AM 78.4°F25.8°C 57.2°F14.0°C 48% 2.5 mph WNW4.0 kmh WNW 4.0 mph6.4 kmh 30.01 in1016.3 mb 0.00 in0.0 mm 0.00 in0.0 mm 0.00 in0.0 mm
07:43 AM 78.6°F25.9°C 56.7°F13.7°C 47% 2.9 mph E4.7 kmh E 5.4 mph8.7 kmh 30.01 in1016.3 mb 0.00 in0.0 mm 0.00 in0.0 mm 0.00 in0.0 mm
07:45 AM 78.6°F25.9°C 56.7°F13.7°C 47% 2.9 mph NNW4.7 kmh NNW 6.9 mph11.1 kmh 30.01 in1016.3 mb 0.00 in0.0 mm 0.00 in0.0 mm 0.00 in0.0 mm
07:47 AM 78.6°F25.9°C 56.7°F13.7°C 47% 3.8 mph ENE6.1 kmh ENE 6.0 mph9.7 kmh 30.01 in1016.3 mb 0.00 in0.0 mm 0.00 in0.0 mm 0.00 in0.0 mm
07:50 AM 78.6°F25.9°C 56.7°F13.7°C 47% 3.6 mph ESE5.8 kmh ESE 6.0 mph9.7 kmh 30.01 in1016.3 mb 0.00 in0.0 mm 0.00 in0.0 mm 0.00 in0.0 mm
07:52 AM 78.6°F25.9°C 56.7°F13.7°C 47% 3.6 mph ESE5.8 kmh ESE 5.1 mph8.2 kmh 30.01 in1016.3 mb 0.00 in0.0 mm 0.00 in0.0 mm 0.00 in0.0 mm
07:54 AM 78.6°F25.9°C 56.7°F13.7°C 47% 4.3 mph ESE6.9 kmh ESE 10.3 mph16.6 kmh 30.01 in1016.3 mb 0.00 in0.0 mm 0.00 in0.0 mm 0.00 in0.0 mm
07:56 AM 78.8°F26.0°C 56.8°F13.8°C 47% 5.1 mph ESE8.2 kmh ESE 8.1 mph13.0 kmh 30.01 in1016.3 mb 0.00 in0.0 mm 0.00 in0.0 mm 0.00 in0.0 mm
07:58 AM 78.6°F25.9°C 56.7°F13.7°C 47% 6.5 mph ESE10.5 kmh ESE 8.5 mph13.7 kmh 30.01 in1016.3 mb 0.00 in0.0 mm 0.00 in0.0 mm 0.00 in0.0 mm
08:01 AM 78.6°F25.9°C 56.7°F13.7°C 47% 5.8 mph E9.3 kmh E 6.5 mph10.5 kmh 30.02 in1016.6 mb 0.00 in0.0 mm 0.00 in0.0 mm 0.00 in0.0 mm
08:03 AM 79.0°F26.1°C 57.0°F13.9°C 47% 4.9 mph NNE7.9 kmh NNE 6.9 mph11.1 kmh 30.02 in1016.6 mb 0.00 in0.0 mm 0.00 in0.0 mm 0.00 in0.0 mm
08:05 AM 79.2°F26.2°C 57.2°F14.0°C 47% 4.3 mph ENE6.9 kmh ENE 6.0 mph9.7 kmh 30.02 in1016.6 mb 0.00 in0.0 mm 0.00 in0.0 mm 0.00 in0.0 mm
08:07 AM 79.3°F26.3°C 57.4°F14.1°C 47% 4.5 mph ENE7.2 kmh ENE 6.7 mph10.8 kmh 30.02 in1016.6 mb 0.00 in0.0 mm 0.00 in0.0 mm 0.00 in0.0 mm
08:09 AM 79.3°F26.3°C 57.4°F14.1°C 47% 6.3 mph E10.1 kmh E 10.3 mph16.6 kmh 30.01 in1016.3 mb 0.00 in0.0 mm 0.00 in0.0 mm 0.00 in0.0 mm
08:12 AM 79.3°F26.3°C 57.4°F14.1°C 47% 5.6 mph ENE9.0 kmh ENE 7.6 mph12.2 kmh 30.02 in1016.6 mb 0.00 in0.0 mm 0.00 in0.0 mm 0.00 in0.0 mm
08:14 AM 79.3°F26.3°C 56.8°F13.8°C 46% 6.5 mph ESE10.5 kmh ESE 11.2 mph18.0 kmh 30.02 in1016.6 mb 0.00 in0.0 mm 0.00 in0.0 mm 0.00 in0.0 mm
08:16 AM 79.0°F26.1°C 57.0°F13.9°C 47% 6.5 mph E10.5 kmh E 9.4 mph15.1 kmh 30.02 in1016.6 mb 0.00 in0.0 mm 0.00 in0.0 mm 0.00 in0.0 mm
08:18 AM 79.0°F26.1°C 57.0°F13.9°C 47% 5.1 mph ENE8.2 kmh ENE 6.7 mph10.8 kmh 30.02 in1016.6 mb 0.00 in0.0 mm 0.00 in0.0 mm 0.00 in0.0 mm
08:20 AM 79.2°F26.2°C 57.2°F14.0°C 47% 5.6 mph E9.0 kmh E 10.7 mph17.2 kmh 30.02 in1016.6 mb 0.00 in0.0 mm 0.00 in0.0 mm 0.00 in0.0 mm
08:23 AM 79.2°F26.2°C 57.2°F14.0°C 47% 5.8 mph NNE9.3 kmh NNE 9.4 mph15.1 kmh 30.02 in1016.6 mb 0.00 in0.0 mm 0.00 in0.0 mm 0.00 in0.0 mm
08:25 AM 79.3°F26.3°C 57.4°F14.1°C 47% 6.7 mph E10.8 kmh E 9.8 mph15.8 kmh 30.02 in1016.6 mb 0.00 in0.0 mm 0.00 in0.0 mm 0.00 in0.0 mm
08:27 AM 79.3°F26.3°C 57.4°F14.1°C 47% 5.1 mph SE8.2 kmh SE 5.1 mph8.2 kmh 30.02 in1016.6 mb 0.00 in0.0 mm 0.00 in0.0 mm 0.00 in0.0 mm
08:29 AM 79.5°F26.4°C 57.6°F14.2°C 47% 4.5 mph E7.2 kmh E 6.0 mph9.7 kmh 30.02 in1016.6 mb 0.00 in0.0 mm 0.00 in0.0 mm 0.00 in0.0 mm
08:31 AM 79.7°F26.5°C 57.7°F14.3°C 47% 4.0 mph 6.4 kmh 4.7 mph7.6 kmh 30.02 in1016.6 mb 0.00 in0.0 mm 0.00 in0.0 mm 0.00 in0.0 mm
08:34 AM 79.9°F26.6°C 57.9°F14.4°C 47% 3.6 mph NE5.8 kmh NE 5.8 mph9.3 kmh 30.03 in1016.9 mb 0.00 in0.0 mm 0.00 in0.0 mm 0.00 in0.0 mm
08:36 AM 80.4°F26.9°C 57.7°F14.3°C 46% 2.7 mph ESE4.3 kmh ESE 4.7 mph7.6 kmh 30.03 in1016.9 mb 0.00 in0.0 mm 0.00 in0.0 mm 0.00 in0.0 mm
08:38 AM 80.4°F26.9°C 57.7°F14.3°C 46% 2.9 mph E4.7 kmh E 5.1 mph8.2 kmh 30.03 in1016.9 mb 0.00 in0.0 mm 0.00 in0.0 mm 0.00 in0.0 mm
08:41 AM 80.8°F27.1°C 57.4°F14.1°C 45% 2.9 mph ESE4.7 kmh ESE 4.7 mph7.6 kmh 30.03 in1016.9 mb 0.00 in0.0 mm 0.00 in0.0 mm 0.00 in0.0 mm
08:43 AM 81.1°F27.3°C 57.7°F14.3°C 45% 4.5 mph ENE7.2 kmh ENE 10.1 mph16.3 kmh 30.03 in1016.9 mb 0.00 in0.0 mm 0.00 in0.0 mm 0.00 in0.0 mm
08:45 AM 81.1°F27.3°C 57.7°F14.3°C 45% 5.4 mph E8.7 kmh E 10.3 mph16.6 kmh 30.03 in1016.9 mb 0.00 in0.0 mm 0.00 in0.0 mm 0.00 in0.0 mm
08:47 AM 81.0°F27.2°C 57.0°F13.9°C 44% 3.8 mph ENE6.1 kmh ENE 3.8 mph6.1 kmh 30.03 in1016.9 mb 0.00 in0.0 mm 0.00 in0.0 mm 0.00 in0.0 mm
08:49 AM 81.1°F27.3°C 57.7°F14.3°C 45% 3.6 mph E5.8 kmh E 5.1 mph8.2 kmh 30.03 in1016.9 mb 0.00 in0.0 mm 0.00 in0.0 mm 0.00 in0.0 mm
08:52 AM 81.3°F27.4°C 57.4°F14.1°C 44% 4.0 mph SSE6.4 kmh SSE 6.0 mph9.7 kmh 30.03 in1016.9 mb 0.00 in0.0 mm 0.00 in0.0 mm 0.00 in0.0 mm
08:54 AM 81.7°F27.6°C 57.6°F14.2°C 44% 2.5 mph E4.0 kmh E 2.2 mph3.5 kmh 30.03 in1016.9 mb 0.00 in0.0 mm 0.00 in0.0 mm 0.00 in0.0 mm
08:56 AM 81.7°F27.6°C 57.0°F13.9°C 43% 2.7 mph NNW4.3 kmh NNW 5.4 mph8.7 kmh 30.03 in1016.9 mb 0.00 in0.0 mm 0.00 in0.0 mm 0.00 in0.0 mm
08:58 AM 82.0°F27.8°C 57.4°F14.1°C 43% 2.7 mph SSW4.3 kmh SSW 5.4 mph8.7 kmh 30.03 in1016.9 mb 0.00 in0.0 mm 0.00 in0.0 mm 0.00 in0.0 mm
09:00 AM 82.0°F27.8°C 56.7°F13.7°C 42% 2.0 mph NNE3.2 kmh NNE 1.8 mph2.9 kmh 30.03 in1016.9 mb 0.00 in0.0 mm 0.00 in0.0 mm 0.00 in0.0 mm
09:03 AM 82.4°F28.0°C 57.0°F13.9°C 42% 3.1 mph ESE5.0 kmh ESE 6.9 mph11.1 kmh 30.03 in1016.9 mb 0.00 in0.0 mm 0.00 in0.0 mm 0.00 in0.0 mm
09:05 AM 82.8°F28.2°C 57.4°F14.1°C 42% 3.6 mph E5.8 kmh E 7.8 mph12.6 kmh 30.03 in1016.9 mb 0.00 in0.0 mm 0.00 in0.0 mm 0.00 in0.0 mm
09:07 AM 82.8°F28.2°C 57.4°F14.1°C 42% 2.9 mph ENE4.7 kmh ENE 4.9 mph7.9 kmh 30.03 in1016.9 mb 0.00 in0.0 mm 0.00 in0.0 mm 0.00 in0.0 mm
09:09 AM 82.9°F28.3°C 56.8°F13.8°C 41% 3.8 mph ENE6.1 kmh ENE 6.9 mph11.1 kmh 30.03 in1016.9 mb 0.00 in0.0 mm 0.00 in0.0 mm 0.00 in0.0 mm
09:11 AM 82.6°F28.1°C 56.5°F13.6°C 41% 4.3 mph NNE6.9 kmh NNE 10.1 mph16.3 kmh 30.03 in1016.9 mb 0.00 in0.0 mm 0.00 in0.0 mm 0.00 in0.0 mm
09:13 AM 82.2°F27.9°C 56.1°F13.4°C 41% 4.3 mph ENE6.9 kmh ENE 8.5 mph13.7 kmh 30.03 in1016.9 mb 0.00 in0.0 mm 0.00 in0.0 mm 0.00 in0.0 mm
09:16 AM 82.2°F27.9°C 56.1°F13.4°C 41% 4.5 mph E7.2 kmh E 11.0 mph17.7 kmh 30.03 in1016.9 mb 0.00 in0.0 mm 0.00 in0.0 mm 0.00 in0.0 mm
09:18 AM 82.2°F27.9°C 56.1°F13.4°C 41% 2.9 mph NNE4.7 kmh NNE 2.5 mph4.0 kmh 30.03 in1016.9 mb 0.00 in0.0 mm 0.00 in0.0 mm 0.00 in0.0 mm
09:20 AM 82.4°F28.0°C 56.3°F13.5°C 41% 2.7 mph SSE4.3 kmh SSE 3.1 mph5.0 kmh 30.03 in1016.9 mb 0.00 in0.0 mm 0.00 in0.0 mm 0.00 in0.0 mm
09:22 AM 82.8°F28.2°C 56.7°F13.7°C 41% 2.2 mph E3.5 kmh E 4.3 mph6.9 kmh 30.03 in1016.9 mb 0.00 in0.0 mm 0.00 in0.0 mm 0.00 in0.0 mm
09:25 AM 82.9°F28.3°C 56.8°F13.8°C 41% 4.3 mph E6.9 kmh E 11.6 mph18.7 kmh 30.03 in1016.9 mb 0.00 in0.0 mm 0.00 in0.0 mm 0.00 in0.0 mm
09:27 AM 82.4°F28.0°C 56.3°F13.5°C 41% 3.8 mph ENE6.1 kmh ENE 10.1 mph16.3 kmh 30.03 in1016.9 mb 0.00 in0.0 mm 0.00 in0.0 mm 0.00 in0.0 mm
09:29 AM 82.2°F27.9°C 56.1°F13.4°C 41% 6.0 mph NE9.7 kmh NE 15.7 mph25.3 kmh 30.03 in1016.9 mb 0.00 in0.0 mm 0.00 in0.0 mm 0.00 in0.0 mm
09:31 AM 81.7°F27.6°C 55.8°F13.2°C 41% 7.6 mph E12.2 kmh E 17.7 mph28.5 kmh 30.03 in1016.9 mb 0.00 in0.0 mm 0.00 in0.0 mm 0.00 in0.0 mm
09:33 AM 81.5°F27.5°C 56.1°F13.4°C 42% 8.1 mph NE13.0 kmh NE 11.9 mph19.2 kmh 30.03 in1016.9 mb 0.00 in0.0 mm 0.00 in0.0 mm 0.00 in0.0 mm
09:36 AM 81.7°F27.6°C 56.3°F13.5°C 42% 7.4 mph ESE11.9 kmh ESE 11.9 mph19.2 kmh 30.03 in1016.9 mb 0.00 in0.0 mm 0.00 in0.0 mm 0.00 in0.0 mm
09:38 AM 81.5°F27.5°C 56.1°F13.4°C 42% 6.7 mph ESE10.8 kmh ESE 13.4 mph21.6 kmh 30.03 in1016.9 mb 0.00 in0.0 mm 0.00 in0.0 mm 0.00 in0.0 mm
09:40 AM 81.1°F27.3°C 56.5°F13.6°C 43% 6.7 mph SE10.8 kmh SE 11.2 mph18.0 kmh 30.04 in1017.3 mb 0.00 in0.0 mm 0.00 in0.0 mm 0.00 in0.0 mm
09:42 AM 81.0°F27.2°C 56.3°F13.5°C 43% 7.2 mph E11.6 kmh E 11.0 mph17.7 kmh 30.04 in1017.3 mb 0.00 in0.0 mm 0.00 in0.0 mm 0.00 in0.0 mm
09:45 AM 81.1°F27.3°C 57.7°F14.3°C 45% 7.4 mph ESE11.9 kmh ESE 11.4 mph18.3 kmh 30.04 in1017.3 mb 0.00 in0.0 mm 0.00 in0.0 mm 0.00 in0.0 mm
09:47 AM 81.5°F27.5°C 57.6°F14.2°C 44% 7.2 mph ESE11.6 kmh ESE 9.6 mph15.4 kmh 30.04 in1017.3 mb 0.00 in0.0 mm 0.00 in0.0 mm 0.00 in0.0 mm
09:49 AM 81.5°F27.5°C 57.6°F14.2°C 44% 7.6 mph SE12.2 kmh SE 11.4 mph18.3 kmh 30.04 in1017.3 mb 0.00 in0.0 mm 0.00 in0.0 mm 0.00 in0.0 mm
09:51 AM 81.3°F27.4°C 57.9°F14.4°C 45% 7.8 mph E12.6 kmh E 14.5 mph23.3 kmh 30.03 in1016.9 mb 0.00 in0.0 mm 0.00 in0.0 mm 0.00 in0.0 mm
09:53 AM 81.3°F27.4°C 57.9°F14.4°C 45% 9.2 mph ESE14.8 kmh ESE 15.2 mph24.5 kmh 30.04 in1017.3 mb 0.00 in0.0 mm 0.00 in0.0 mm 0.00 in0.0 mm
09:56 AM 81.3°F27.4°C 57.9°F14.4°C 45% 6.0 mph 9.7 kmh 7.4 mph11.9 kmh 30.04 in1017.3 mb 0.00 in0.0 mm 0.00 in0.0 mm 0.00 in0.0 mm
09:58 AM 81.5°F27.5°C 58.6°F14.8°C 46% 4.7 mph ESE7.6 kmh ESE 4.9 mph7.9 kmh 30.04 in1017.3 mb 0.00 in0.0 mm 0.00 in0.0 mm 0.00 in0.0 mm
10:00 AM 82.0°F27.8°C 59.2°F15.1°C 46% 4.3 mph ENE6.9 kmh ENE 11.2 mph18.0 kmh 30.04 in1017.3 mb 0.00 in0.0 mm 0.00 in0.0 mm 0.00 in0.0 mm
10:02 AM 82.2°F27.9°C 58.8°F14.9°C 45% 4.7 mph E7.6 kmh E 6.7 mph10.8 kmh 30.04 in1017.3 mb 0.00 in0.0 mm 0.00 in0.0 mm 0.00 in0.0 mm
10:05 AM 82.2°F27.9°C 58.8°F14.9°C 45% 3.6 mph SE5.8 kmh SE 4.7 mph7.6 kmh 30.04 in1017.3 mb 0.00 in0.0 mm 0.00 in0.0 mm 0.00 in0.0 mm
10:07 AM 82.6°F28.1°C 59.0°F15.0°C 45% 3.6 mph E5.8 kmh E 6.0 mph9.7 kmh 30.04 in1017.3 mb 0.00 in0.0 mm 0.00 in0.0 mm 0.00 in0.0 mm
10:09 AM 82.8°F28.2°C 59.2°F15.1°C 45% 5.4 mph ENE8.7 kmh ENE 10.7 mph17.2 kmh 30.04 in1017.3 mb 0.00 in0.0 mm 0.00 in0.0 mm 0.00 in0.0 mm
10:11 AM 82.4°F28.0°C 59.0°F15.0°C 45% 5.6 mph SE9.0 kmh SE 8.1 mph13.0 kmh 30.04 in1017.3 mb 0.00 in0.0 mm 0.00 in0.0 mm 0.00 in0.0 mm
10:14 AM 82.2°F27.9°C 58.8°F14.9°C 45% 6.5 mph ENE10.5 kmh ENE 13.6 mph21.9 kmh 30.04 in1017.3 mb 0.00 in0.0 mm 0.00 in0.0 mm 0.00 in0.0 mm
10:16 AM 82.2°F27.9°C 59.4°F15.2°C 46% 7.4 mph SE11.9 kmh SE 12.5 mph20.1 kmh 30.04 in1017.3 mb 0.00 in0.0 mm 0.00 in0.0 mm 0.00 in0.0 mm
10:18 AM 82.2°F27.9°C 59.4°F15.2°C 46% 7.4 mph SE11.9 kmh SE 9.2 mph14.8 kmh 30.04 in1017.3 mb 0.00 in0.0 mm 0.00 in0.0 mm 0.00 in0.0 mm
10:20 AM 82.8°F28.2°C 59.9°F15.5°C 46% 5.4 mph NNW8.7 kmh NNW 6.5 mph10.5 kmh 30.04 in1017.3 mb 0.00 in0.0 mm 0.00 in0.0 mm 0.00 in0.0 mm
10:22 AM 83.1°F28.4°C 59.5°F15.3°C 45% 6.3 mph SE10.1 kmh SE 9.8 mph15.8 kmh 30.04 in1017.3 mb 0.00 in0.0 mm 0.00 in0.0 mm 0.00 in0.0 mm
10:24 AM 83.5°F28.6°C 59.9°F15.5°C 45% 6.3 mph E10.1 kmh E 10.1 mph16.3 kmh 30.04 in1017.3 mb 0.00 in0.0 mm 0.00 in0.0 mm 0.00 in0.0 mm
10:27 AM 83.1°F28.4°C 59.0°F15.0°C 44% 6.7 mph E10.8 kmh E 10.3 mph16.6 kmh 30.04 in1017.3 mb 0.00 in0.0 mm 0.00 in0.0 mm 0.00 in0.0 mm
10:29 AM 82.9°F28.3°C 59.4°F15.2°C 45% 4.5 mph NNW7.2 kmh NNW 2.0 mph3.2 kmh 30.04 in1017.3 mb 0.00 in0.0 mm 0.00 in0.0 mm 0.00 in0.0 mm
10:31 AM 82.9°F28.3°C 60.1°F15.6°C 46% 4.0 mph W6.4 kmh W 9.2 mph14.8 kmh 30.04 in1017.3 mb 0.00 in0.0 mm 0.00 in0.0 mm 0.00 in0.0 mm
10:33 AM 83.1°F28.4°C 60.3°F15.7°C 46% 2.9 mph ESE4.7 kmh ESE 4.7 mph7.6 kmh 30.04 in1017.3 mb 0.00 in0.0 mm 0.00 in0.0 mm 0.00 in0.0 mm
10:35 AM 83.8°F28.8°C 60.8°F16.0°C 46% 4.3 mph ESE6.9 kmh ESE 9.4 mph15.1 kmh 30.05 in1017.6 mb 0.00 in0.0 mm 0.00 in0.0 mm 0.00 in0.0 mm
10:37 AM 83.8°F28.8°C 60.3°F15.7°C 45% 5.1 mph SSE8.2 kmh SSE 9.8 mph15.8 kmh 30.04 in1017.3 mb 0.00 in0.0 mm 0.00 in0.0 mm 0.00 in0.0 mm
10:39 AM 83.5°F28.6°C 59.9°F15.5°C 45% 4.7 mph NNE7.6 kmh NNE 8.5 mph13.7 kmh 30.04 in1017.3 mb 0.00 in0.0 mm 0.00 in0.0 mm 0.00 in0.0 mm
10:42 AM 83.7°F28.7°C 60.6°F15.9°C 46% 2.9 mph NNW4.7 kmh NNW 2.9 mph4.7 kmh 30.04 in1017.3 mb 0.00 in0.0 mm 0.00 in0.0 mm 0.00 in0.0 mm
10:44 AM 84.0°F28.9°C 61.0°F16.1°C 46% 4.7 mph E7.6 kmh E 13.0 mph20.9 kmh 30.05 in1017.6 mb 0.00 in0.0 mm 0.00 in0.0 mm 0.00 in0.0 mm
10:46 AM 83.5°F28.6°C 59.9°F15.5°C 45% 5.8 mph E9.3 kmh E 10.1 mph16.3 kmh 30.04 in1017.3 mb 0.00 in0.0 mm 0.00 in0.0 mm 0.00 in0.0 mm
10:48 AM 82.9°F28.3°C 60.1°F15.6°C 46% 6.3 mph E10.1 kmh E 8.3 mph13.4 kmh 30.04 in1017.3 mb 0.00 in0.0 mm 0.00 in0.0 mm 0.00 in0.0 mm
10:50 AM 82.6°F28.1°C 59.7°F15.4°C 46% 4.3 mph NNW6.9 kmh NNW 5.1 mph8.2 kmh 30.04 in1017.3 mb 0.00 in0.0 mm 0.00 in0.0 mm 0.00 in0.0 mm
10:52 AM 82.9°F28.3°C 60.1°F15.6°C 46% 4.5 mph ENE7.2 kmh ENE 9.2 mph14.8 kmh 30.04 in1017.3 mb 0.00 in0.0 mm 0.00 in0.0 mm 0.00 in0.0 mm
10:55 AM 83.5°F28.6°C 59.9°F15.5°C 45% 4.5 mph NE7.2 kmh NE 7.2 mph11.6 kmh 30.04 in1017.3 mb 0.00 in0.0 mm 0.00 in0.0 mm 0.00 in0.0 mm
10:57 AM 83.7°F28.7°C 59.4°F15.2°C 44% 5.4 mph E8.7 kmh E 8.1 mph13.0 kmh 30.05 in1017.6 mb 0.00 in0.0 mm 0.00 in0.0 mm 0.00 in0.0 mm
10:59 AM 83.5°F28.6°C 59.4°F15.2°C 44% 4.7 mph ENE7.6 kmh ENE 9.6 mph15.4 kmh 30.04 in1017.3 mb 0.00 in0.0 mm 0.00 in0.0 mm 0.00 in0.0 mm
11:01 AM 83.3°F28.5°C 59.2°F15.1°C 44% 4.0 mph E6.4 kmh E 5.1 mph8.2 kmh 30.04 in1017.3 mb 0.00 in0.0 mm 0.00 in0.0 mm 0.00 in0.0 mm
11:03 AM 83.1°F28.4°C 59.0°F15.0°C 44% 5.6 mph ESE9.0 kmh ESE 11.9 mph19.2 kmh 30.04 in1017.3 mb 0.00 in0.0 mm 0.00 in0.0 mm 0.00 in0.0 mm
11:06 AM 83.1°F28.4°C 59.0°F15.0°C 44% 4.9 mph SE7.9 kmh SE 10.5 mph16.9 kmh 30.04 in1017.3 mb 0.00 in0.0 mm 0.00 in0.0 mm 0.00 in0.0 mm
11:08 AM 83.1°F28.4°C 58.3°F14.6°C 43% 4.9 mph SSW7.9 kmh SSW 8.9 mph14.3 kmh 30.04 in1017.3 mb 0.00 in0.0 mm 0.00 in0.0 mm 0.00 in0.0 mm
11:10 AM 83.3°F28.5°C 59.2°F15.1°C 44% 4.3 mph S6.9 kmh S 6.5 mph10.5 kmh 30.04 in1017.3 mb 0.00 in0.0 mm 0.00 in0.0 mm 0.00 in0.0 mm
11:12 AM 83.3°F28.5°C 58.5°F14.7°C 43% 4.0 mph WSW6.4 kmh WSW 7.4 mph11.9 kmh 30.04 in1017.3 mb 0.00 in0.0 mm 0.00 in0.0 mm 0.00 in0.0 mm
11:14 AM 83.5°F28.6°C 58.6°F14.8°C 43% 4.0 mph NNW6.4 kmh NNW 7.4 mph11.9 kmh 30.05 in1017.6 mb 0.00 in0.0 mm 0.00 in0.0 mm 0.00 in0.0 mm
11:17 AM 83.7°F28.7°C 58.8°F14.9°C 43% 4.5 mph E7.2 kmh E 9.8 mph15.8 kmh 30.04 in1017.3 mb 0.00 in0.0 mm 0.00 in0.0 mm 0.00 in0.0 mm
11:19 AM 84.0°F28.9°C 59.2°F15.1°C 43% 3.6 mph SE5.8 kmh SE 4.0 mph6.4 kmh 30.04 in1017.3 mb 0.00 in0.0 mm 0.00 in0.0 mm 0.00 in0.0 mm
11:21 AM 83.8°F28.8°C 59.0°F15.0°C 43% 3.6 mph E5.8 kmh E 8.3 mph13.4 kmh 30.04 in1017.3 mb 0.00 in0.0 mm 0.00 in0.0 mm 0.00 in0.0 mm
11:23 AM 84.0°F28.9°C 59.2°F15.1°C 43% 3.1 mph 5.0 kmh 4.5 mph7.2 kmh 30.04 in1017.3 mb 0.00 in0.0 mm 0.00 in0.0 mm 0.00 in0.0 mm
11:25 AM 84.2°F29.0°C 59.4°F15.2°C 43% 4.5 mph E7.2 kmh E 12.5 mph20.1 kmh 30.04 in1017.3 mb 0.00 in0.0 mm 0.00 in0.0 mm 0.00 in0.0 mm
11:28 AM 84.0°F28.9°C 58.5°F14.7°C 42% 4.7 mph 7.6 kmh 10.7 mph17.2 kmh 30.04 in1017.3 mb 0.00 in0.0 mm 0.00 in0.0 mm 0.00 in0.0 mm
11:30 AM 83.8°F28.8°C 58.3°F14.6°C 42% 5.8 mph E9.3 kmh E 12.3 mph19.8 kmh 30.05 in1017.6 mb 0.00 in0.0 mm 0.00 in0.0 mm 0.00 in0.0 mm
11:32 AM 83.7°F28.7°C 57.4°F14.1°C 41% 5.8 mph NNE9.3 kmh NNE 11.9 mph19.2 kmh 30.04 in1017.3 mb 0.00 in0.0 mm 0.00 in0.0 mm 0.00 in0.0 mm
11:34 AM 83.8°F28.8°C 59.0°F15.0°C 43% 5.1 mph SSW8.2 kmh SSW 13.0 mph20.9 kmh 30.05 in1017.6 mb 0.00 in0.0 mm 0.00 in0.0 mm 0.00 in0.0 mm
11:36 AM 83.5°F28.6°C 58.6°F14.8°C 43% 4.5 mph ENE7.2 kmh ENE 7.8 mph12.6 kmh 30.04 in1017.3 mb 0.00 in0.0 mm 0.00 in0.0 mm 0.00 in0.0 mm
11:38 AM 83.3°F28.5°C 58.5°F14.7°C 43% 4.3 mph SSW6.9 kmh SSW 6.5 mph10.5 kmh 30.04 in1017.3 mb 0.00 in0.0 mm 0.00 in0.0 mm 0.00 in0.0 mm
11:40 AM 83.5°F28.6°C 58.6°F14.8°C 43% 4.5 mph 7.2 kmh 8.1 mph13.0 kmh 30.04 in1017.3 mb 0.00 in0.0 mm 0.00 in0.0 mm 0.00 in0.0 mm
11:42 AM 83.8°F28.8°C 59.0°F15.0°C 43% 5.4 mph E8.7 kmh E 16.1 mph25.9 kmh 30.04 in1017.3 mb 0.00 in0.0 mm 0.00 in0.0 mm 0.00 in0.0 mm
11:45 AM 84.0°F28.9°C 58.5°F14.7°C 42% 5.4 mph SSE8.7 kmh SSE 9.4 mph15.1 kmh 30.04 in1017.3 mb 0.00 in0.0 mm 0.00 in0.0 mm 0.00 in0.0 mm
11:47 AM 84.4°F29.1°C 58.8°F14.9°C 42% 3.8 mph E6.1 kmh E 6.0 mph9.7 kmh 30.05 in1017.6 mb 0.00 in0.0 mm 0.00 in0.0 mm 0.00 in0.0 mm
11:49 AM 84.6°F29.2°C 59.0°F15.0°C 42% 6.0 mph ESE9.7 kmh ESE 15.0 mph24.1 kmh 30.04 in1017.3 mb 0.00 in0.0 mm 0.00 in0.0 mm 0.00 in0.0 mm
11:51 AM 84.6°F29.2°C 59.0°F15.0°C 42% 4.7 mph NNE7.6 kmh NNE 15.0 mph24.1 kmh 30.05 in1017.6 mb 0.00 in0.0 mm 0.00 in0.0 mm 0.00 in0.0 mm
11:53 AM 84.9°F29.4°C 58.6°F14.8°C 41% 3.6 mph E5.8 kmh E 4.7 mph7.6 kmh 30.05 in1017.6 mb 0.00 in0.0 mm 0.00 in0.0 mm 0.00 in0.0 mm
11:56 AM 85.6°F29.8°C 59.2°F15.1°C 41% 3.1 mph 5.0 kmh 6.0 mph9.7 kmh 30.04 in1017.3 mb 0.00 in0.0 mm 0.00 in0.0 mm 0.00 in0.0 mm
11:58 AM 85.6°F29.8°C 59.2°F15.1°C 41% 2.5 mph SSW4.0 kmh SSW 3.1 mph5.0 kmh 30.04 in1017.3 mb 0.00 in0.0 mm 0.00 in0.0 mm 0.00 in0.0 mm
12:00 PM 85.6°F29.8°C 58.5°F14.7°C 40% 4.5 mph E7.2 kmh E 13.0 mph20.9 kmh 30.05 in1017.6 mb 0.00 in0.0 mm 0.00 in0.0 mm 0.00 in0.0 mm
12:02 PM 84.9°F29.4°C 58.6°F14.8°C 41% 6.3 mph E10.1 kmh E 14.3 mph23.0 kmh 30.05 in1017.6 mb 0.00 in0.0 mm 0.00 in0.0 mm 0.00 in0.0 mm
12:04 PM 84.7°F29.3°C 58.5°F14.7°C 41% 9.2 mph NE14.8 kmh NE 16.1 mph25.9 kmh 30.05 in1017.6 mb 0.00 in0.0 mm 0.00 in0.0 mm 0.00 in0.0 mm
12:07 PM 84.6°F29.2°C 58.3°F14.6°C 41% 7.8 mph E12.6 kmh E 9.4 mph15.1 kmh 30.05 in1017.6 mb 0.00 in0.0 mm 0.00 in0.0 mm 0.00 in0.0 mm
12:09 PM 84.2°F29.0°C 58.6°F14.8°C 42% 7.2 mph ESE11.6 kmh ESE 10.7 mph17.2 kmh 30.04 in1017.3 mb 0.00 in0.0 mm 0.00 in0.0 mm 0.00 in0.0 mm
12:11 PM 84.2°F29.0°C 59.4°F15.2°C 43% 7.8 mph 12.6 kmh 12.8 mph20.6 kmh 30.04 in1017.3 mb 0.00 in0.0 mm 0.00 in0.0 mm 0.00 in0.0 mm
12:13 PM 84.7°F29.3°C 59.7°F15.4°C 43% 6.9 mph NNE11.1 kmh NNE 8.7 mph14.0 kmh 30.04 in1017.3 mb 0.00 in0.0 mm 0.00 in0.0 mm 0.00 in0.0 mm
12:15 PM 85.1°F29.5°C 58.8°F14.9°C 41% 5.1 mph NW8.2 kmh NW 5.1 mph8.2 kmh 30.04 in1017.3 mb 0.00 in0.0 mm 0.00 in0.0 mm 0.00 in0.0 mm
12:18 PM 85.6°F29.8°C 59.2°F15.1°C 41% 5.8 mph E9.3 kmh E 9.4 mph15.1 kmh 30.04 in1017.3 mb 0.00 in0.0 mm 0.00 in0.0 mm 0.00 in0.0 mm
12:20 PM 85.1°F29.5°C 58.1°F14.5°C 40% 5.4 mph ENE8.7 kmh ENE 10.7 mph17.2 kmh 30.04 in1017.3 mb 0.00 in0.0 mm 0.00 in0.0 mm 0.00 in0.0 mm
12:22 PM 84.9°F29.4°C 57.9°F14.4°C 40% 4.3 mph SSE6.9 kmh SSE 5.4 mph8.7 kmh 30.04 in1017.3 mb 0.00 in0.0 mm 0.00 in0.0 mm 0.00 in0.0 mm
12:24 PM 84.7°F29.3°C 57.7°F14.3°C 40% 4.3 mph 6.9 kmh 10.7 mph17.2 kmh 30.04 in1017.3 mb 0.00 in0.0 mm 0.00 in0.0 mm 0.00 in0.0 mm
12:27 PM 84.6°F29.2°C 57.6°F14.2°C 40% 2.9 mph WNW4.7 kmh WNW 4.3 mph6.9 kmh 30.04 in1017.3 mb 0.00 in0.0 mm 0.00 in0.0 mm 0.00 in0.0 mm
12:29 PM 84.7°F29.3°C 57.7°F14.3°C 40% 3.8 mph NE6.1 kmh NE 6.7 mph10.8 kmh 30.05 in1017.6 mb 0.00 in0.0 mm 0.00 in0.0 mm 0.00 in0.0 mm
12:31 PM 84.4°F29.1°C 57.4°F14.1°C 40% 6.3 mph SE10.1 kmh SE 14.5 mph23.3 kmh 30.05 in1017.6 mb 0.00 in0.0 mm 0.00 in0.0 mm 0.00 in0.0 mm
12:34 PM 84.0°F28.9°C 57.7°F14.3°C 41% 5.6 mph WNW9.0 kmh WNW 7.6 mph12.2 kmh 30.05 in1017.6 mb 0.00 in0.0 mm 0.00 in0.0 mm 0.00 in0.0 mm
12:36 PM 84.0°F28.9°C 57.7°F14.3°C 41% 4.3 mph SSE6.9 kmh SSE 5.4 mph8.7 kmh 30.04 in1017.3 mb 0.00 in0.0 mm 0.00 in0.0 mm 0.00 in0.0 mm
12:38 PM 84.4°F29.1°C 58.1°F14.5°C 41% 4.0 mph E6.4 kmh E 9.4 mph15.1 kmh 30.04 in1017.3 mb 0.00 in0.0 mm 0.00 in0.0 mm 0.00 in0.0 mm
12:40 PM 84.4°F29.1°C 57.4°F14.1°C 40% 3.1 mph SSW5.0 kmh SSW 5.8 mph9.3 kmh 30.04 in1017.3 mb 0.00 in0.0 mm 0.00 in0.0 mm 0.00 in0.0 mm
12:42 PM 84.6°F29.2°C 57.6°F14.2°C 40% 3.1 mph NNW5.0 kmh NNW 4.7 mph7.6 kmh 30.04 in1017.3 mb 0.00 in0.0 mm 0.00 in0.0 mm 0.00 in0.0 mm
12:45 PM 84.6°F29.2°C 57.6°F14.2°C 40% 3.8 mph NNE6.1 kmh NNE 6.9 mph11.1 kmh 30.04 in1017.3 mb 0.00 in0.0 mm 0.00 in0.0 mm 0.00 in0.0 mm
12:47 PM 84.4°F29.1°C 57.4°F14.1°C 40% 4.5 mph NE7.2 kmh NE 7.8 mph12.6 kmh 30.05 in1017.6 mb 0.00 in0.0 mm 0.00 in0.0 mm 0.00 in0.0 mm
12:49 PM 84.0°F28.9°C 57.7°F14.3°C 41% 8.3 mph SE13.4 kmh SE 16.8 mph27.0 kmh 30.05 in1017.6 mb 0.00 in0.0 mm 0.00 in0.0 mm 0.00 in0.0 mm
12:51 PM 83.5°F28.6°C 57.4°F14.1°C 41% 7.8 mph SE12.6 kmh SE 13.4 mph21.6 kmh 30.05 in1017.6 mb 0.00 in0.0 mm 0.00 in0.0 mm 0.00 in0.0 mm
12:53 PM 83.3°F28.5°C 57.2°F14.0°C 41% 5.8 mph SE9.3 kmh SE 9.2 mph14.8 kmh 30.04 in1017.3 mb 0.00 in0.0 mm 0.00 in0.0 mm 0.00 in0.0 mm
12:55 PM 83.5°F28.6°C 57.4°F14.1°C 41% 4.0 mph ESE6.4 kmh ESE 5.1 mph8.2 kmh 30.04 in1017.3 mb 0.00 in0.0 mm 0.00 in0.0 mm 0.00 in0.0 mm
12:57 PM 83.8°F28.8°C 59.0°F15.0°C 43% 5.1 mph ENE8.2 kmh ENE 15.0 mph24.1 kmh 30.04 in1017.3 mb 0.00 in0.0 mm 0.00 in0.0 mm 0.00 in0.0 mm
01:00 PM 83.8°F28.8°C 59.5°F15.3°C 44% 8.5 mph E13.7 kmh E 16.8 mph27.0 kmh 30.04 in1017.3 mb 0.00 in0.0 mm 0.00 in0.0 mm 0.00 in0.0 mm
01:02 PM 83.8°F28.8°C 59.5°F15.3°C 44% 6.3 mph E10.1 kmh E 8.7 mph14.0 kmh 30.04 in1017.3 mb 0.00 in0.0 mm 0.00 in0.0 mm 0.00 in0.0 mm
01:04 PM 84.0°F28.9°C 60.4°F15.8°C 45% 4.5 mph NW7.2 kmh NW 5.4 mph8.7 kmh 30.04 in1017.3 mb 0.00 in0.0 mm 0.00 in0.0 mm 0.00 in0.0 mm
01:06 PM 84.0°F28.9°C 60.4°F15.8°C 45% 3.4 mph ENE5.5 kmh ENE 4.9 mph7.9 kmh 30.04 in1017.3 mb 0.00 in0.0 mm 0.00 in0.0 mm 0.00 in0.0 mm
01:08 PM 84.6°F29.2°C 60.8°F16.0°C 45% 3.1 mph SE5.0 kmh SE 4.9 mph7.9 kmh 30.04 in1017.3 mb 0.00 in0.0 mm 0.00 in0.0 mm 0.00 in0.0 mm
01:10 PM 84.9°F29.4°C 61.2°F16.2°C 45% 3.1 mph NNW5.0 kmh NNW 5.6 mph9.0 kmh 30.04 in1017.3 mb 0.00 in0.0 mm 0.00 in0.0 mm 0.00 in0.0 mm
01:13 PM 85.6°F29.8°C 61.2°F16.2°C 44% 2.7 mph 4.3 kmh 3.4 mph5.5 kmh 30.04 in1017.3 mb 0.00 in0.0 mm 0.00 in0.0 mm 0.00 in0.0 mm
01:15 PM 86.0°F30.0°C 61.5°F16.4°C 44% 2.2 mph WNW3.5 kmh WNW 3.6 mph5.8 kmh 30.04 in1017.3 mb 0.00 in0.0 mm 0.00 in0.0 mm 0.00 in0.0 mm
01:17 PM 86.4°F30.2°C 61.2°F16.2°C 43% 2.9 mph ESE4.7 kmh ESE 10.1 mph16.3 kmh 30.04 in1017.3 mb 0.00 in0.0 mm 0.00 in0.0 mm 0.00 in0.0 mm
01:19 PM 85.8°F29.9°C 60.8°F16.0°C 43% 6.3 mph E10.1 kmh E 15.2 mph24.5 kmh 30.04 in1017.3 mb 0.00 in0.0 mm 0.00 in0.0 mm 0.00 in0.0 mm
01:21 PM 84.7°F29.3°C 60.4°F15.8°C 44% 7.2 mph ENE11.6 kmh ENE 14.3 mph23.0 kmh 30.04 in1017.3 mb 0.00 in0.0 mm 0.00 in0.0 mm 0.00 in0.0 mm
01:23 PM 83.8°F28.8°C 60.3°F15.7°C 45% 6.7 mph ESE10.8 kmh ESE 9.4 mph15.1 kmh 30.04 in1017.3 mb 0.00 in0.0 mm 0.00 in0.0 mm 0.00 in0.0 mm
01:26 PM 83.3°F28.5°C 59.7°F15.4°C 45% 6.3 mph E10.1 kmh E 10.1 mph16.3 kmh 30.04 in1017.3 mb 0.00 in0.0 mm 0.00 in0.0 mm 0.00 in0.0 mm
01:28 PM 83.3°F28.5°C 60.4°F15.8°C 46% 6.5 mph ESE10.5 kmh ESE 10.7 mph17.2 kmh 30.04 in1017.3 mb 0.00 in0.0 mm 0.00 in0.0 mm 0.00 in0.0 mm
01:30 PM 83.3°F28.5°C 60.4°F15.8°C 46% 4.7 mph 7.6 kmh 6.5 mph10.5 kmh 30.04 in1017.3 mb 0.00 in0.0 mm 0.00 in0.0 mm 0.00 in0.0 mm
01:32 PM 83.8°F28.8°C 60.3°F15.7°C 45% 5.6 mph ESE9.0 kmh ESE 13.6 mph21.9 kmh 30.04 in1017.3 mb 0.00 in0.0 mm 0.00 in0.0 mm 0.00 in0.0 mm
01:34 PM 84.0°F28.9°C 60.4°F15.8°C 45% 5.8 mph NE9.3 kmh NE 10.5 mph16.9 kmh 30.04 in1017.3 mb 0.00 in0.0 mm 0.00 in0.0 mm 0.00 in0.0 mm
01:36 PM 84.2°F29.0°C 60.6°F15.9°C 45% 7.2 mph E11.6 kmh E 10.7 mph17.2 kmh 30.05 in1017.6 mb 0.00 in0.0 mm 0.00 in0.0 mm 0.00 in0.0 mm
01:39 PM 84.4°F29.1°C 60.1°F15.6°C 44% 6.9 mph SE11.1 kmh SE 12.8 mph20.6 kmh 30.04 in1017.3 mb 0.00 in0.0 mm 0.00 in0.0 mm 0.00 in0.0 mm
01:41 PM 84.4°F29.1°C 60.1°F15.6°C 44% 6.3 mph ENE10.1 kmh ENE 10.5 mph16.9 kmh 30.05 in1017.6 mb 0.00 in0.0 mm 0.00 in0.0 mm 0.00 in0.0 mm
01:43 PM 84.4°F29.1°C 60.1°F15.6°C 44% 7.4 mph E11.9 kmh E 13.6 mph21.9 kmh 30.05 in1017.6 mb 0.00 in0.0 mm 0.00 in0.0 mm 0.00 in0.0 mm
01:45 PM 83.8°F28.8°C 59.0°F15.0°C 43% 6.5 mph E10.5 kmh E 10.3 mph16.6 kmh 30.04 in1017.3 mb 0.00 in0.0 mm 0.00 in0.0 mm 0.00 in0.0 mm
01:48 PM 84.0°F28.9°C 59.7°F15.4°C 44% 4.3 mph 6.9 kmh 3.1 mph5.0 kmh 30.05 in1017.6 mb 0.00 in0.0 mm 0.00 in0.0 mm 0.00 in0.0 mm
01:50 PM 84.4°F29.1°C 59.4°F15.2°C 43% 4.9 mph E7.9 kmh E 11.9 mph19.2 kmh 30.05 in1017.6 mb 0.00 in0.0 mm 0.00 in0.0 mm 0.00 in0.0 mm
01:52 PM 84.2°F29.0°C 59.4°F15.2°C 43% 7.8 mph ESE12.6 kmh ESE 14.5 mph23.3 kmh 30.05 in1017.6 mb 0.00 in0.0 mm 0.00 in0.0 mm 0.00 in0.0 mm
01:54 PM 84.0°F28.9°C 59.7°F15.4°C 44% 6.9 mph E11.1 kmh E 9.8 mph15.8 kmh 30.04 in1017.3 mb 0.00 in0.0 mm 0.00 in0.0 mm 0.00 in0.0 mm
01:56 PM 84.0°F28.9°C 59.2°F15.1°C 43% 7.8 mph E12.6 kmh E 15.7 mph25.3 kmh 30.05 in1017.6 mb 0.00 in0.0 mm 0.00 in0.0 mm 0.00 in0.0 mm
01:58 PM 84.4°F29.1°C 58.8°F14.9°C 42% 7.4 mph NE11.9 kmh NE 10.3 mph16.6 kmh 30.05 in1017.6 mb 0.00 in0.0 mm 0.00 in0.0 mm 0.00 in0.0 mm
02:00 PM 84.6°F29.2°C 59.0°F15.0°C 42% 6.9 mph E11.1 kmh E 11.9 mph19.2 kmh 30.05 in1017.6 mb 0.00 in0.0 mm 0.00 in0.0 mm 0.00 in0.0 mm
02:02 PM 84.0°F28.9°C 58.5°F14.7°C 42% 8.1 mph ESE13.0 kmh ESE 11.9 mph19.2 kmh 30.05 in1017.6 mb 0.00 in0.0 mm 0.00 in0.0 mm 0.00 in0.0 mm
02:05 PM 83.8°F28.8°C 58.3°F14.6°C 42% 6.9 mph E11.1 kmh E 8.3 mph13.4 kmh 30.05 in1017.6 mb 0.00 in0.0 mm 0.00 in0.0 mm 0.00 in0.0 mm
02:07 PM 84.0°F28.9°C 58.5°F14.7°C 42% 8.9 mph SE14.3 kmh SE 14.3 mph23.0 kmh 30.05 in1017.6 mb 0.00 in0.0 mm 0.00 in0.0 mm 0.00 in0.0 mm
02:09 PM 84.0°F28.9°C 58.5°F14.7°C 42% 8.9 mph E14.3 kmh E 12.1 mph19.5 kmh 30.05 in1017.6 mb 0.00 in0.0 mm 0.00 in0.0 mm 0.00 in0.0 mm
02:11 PM 83.8°F28.8°C 59.0°F15.0°C 43% 7.8 mph ESE12.6 kmh ESE 15.4 mph24.8 kmh 30.05 in1017.6 mb 0.00 in0.0 mm 0.00 in0.0 mm 0.00 in0.0 mm
02:14 PM 83.8°F28.8°C 57.6°F14.2°C 41% 5.8 mph ENE9.3 kmh ENE 6.5 mph10.5 kmh 30.05 in1017.6 mb 0.00 in0.0 mm 0.00 in0.0 mm 0.00 in0.0 mm
02:16 PM 83.8°F28.8°C 57.6°F14.2°C 41% 4.9 mph ENE7.9 kmh ENE 5.8 mph9.3 kmh 30.05 in1017.6 mb 0.00 in0.0 mm 0.00 in0.0 mm 0.00 in0.0 mm
02:18 PM 84.0°F28.9°C 58.5°F14.7°C 42% 3.6 mph NE5.8 kmh NE 3.8 mph6.1 kmh 30.04 in1017.3 mb 0.00 in0.0 mm 0.00 in0.0 mm 0.00 in0.0 mm
02:20 PM 84.7°F29.3°C 59.2°F15.1°C 42% 3.4 mph ENE5.5 kmh ENE 9.2 mph14.8 kmh 30.04 in1017.3 mb 0.00 in0.0 mm 0.00 in0.0 mm 0.00 in0.0 mm
02:22 PM 85.3°F29.6°C 58.3°F14.6°C 40% 3.1 mph SE5.0 kmh SE 5.8 mph9.3 kmh 30.04 in1017.3 mb 0.00 in0.0 mm 0.00 in0.0 mm 0.00 in0.0 mm
02:24 PM 85.6°F29.8°C 59.2°F15.1°C 41% 3.8 mph E6.1 kmh E 9.6 mph15.4 kmh 30.04 in1017.3 mb 0.00 in0.0 mm 0.00 in0.0 mm 0.00 in0.0 mm
02:27 PM 85.5°F29.7°C 59.0°F15.0°C 41% 5.1 mph E8.2 kmh E 12.3 mph19.8 kmh 30.05 in1017.6 mb 0.00 in0.0 mm 0.00 in0.0 mm 0.00 in0.0 mm
02:29 PM 85.1°F29.5°C 58.1°F14.5°C 40% 6.3 mph E10.1 kmh E 11.9 mph19.2 kmh 30.05 in1017.6 mb 0.00 in0.0 mm 0.00 in0.0 mm 0.00 in0.0 mm
02:31 PM 85.1°F29.5°C 58.1°F14.5°C 40% 5.8 mph ESE9.3 kmh ESE 7.4 mph11.9 kmh 30.05 in1017.6 mb 0.00 in0.0 mm 0.00 in0.0 mm 0.00 in0.0 mm
02:33 PM 85.1°F29.5°C 58.1°F14.5°C 40% 5.1 mph SSE8.2 kmh SSE 10.3 mph16.6 kmh 30.05 in1017.6 mb 0.00 in0.0 mm 0.00 in0.0 mm 0.00 in0.0 mm
02:35 PM 85.3°F29.6°C 58.3°F14.6°C 40% 5.8 mph E9.3 kmh E 9.6 mph15.4 kmh 30.05 in1017.6 mb 0.00 in0.0 mm 0.00 in0.0 mm 0.00 in0.0 mm
02:38 PM 84.9°F29.4°C 57.2°F14.0°C 39% 7.4 mph NE11.9 kmh NE 13.2 mph21.2 kmh 30.05 in1017.6 mb 0.00 in0.0 mm 0.00 in0.0 mm 0.00 in0.0 mm
02:40 PM 84.6°F29.2°C 57.6°F14.2°C 40% 5.8 mph SE9.3 kmh SE 15.4 mph24.8 kmh 30.05 in1017.6 mb 0.00 in0.0 mm 0.00 in0.0 mm 0.00 in0.0 mm
02:42 PM 84.7°F29.3°C 57.7°F14.3°C 40% 4.0 mph ENE6.4 kmh ENE 4.0 mph6.4 kmh 30.06 in1017.9 mb 0.00 in0.0 mm 0.00 in0.0 mm 0.00 in0.0 mm
02:44 PM 84.9°F29.4°C 57.9°F14.4°C 40% 2.9 mph ESE4.7 kmh ESE 5.1 mph8.2 kmh 30.05 in1017.6 mb 0.00 in0.0 mm 0.00 in0.0 mm 0.00 in0.0 mm
02:47 PM 85.6°F29.8°C 58.5°F14.7°C 40% 3.6 mph E5.8 kmh E 5.1 mph8.2 kmh 30.06 in1017.9 mb 0.00 in0.0 mm 0.00 in0.0 mm 0.00 in0.0 mm
02:49 PM 84.9°F29.4°C 57.2°F14.0°C 39% 5.1 mph E8.2 kmh E 11.0 mph17.7 kmh 30.05 in1017.6 mb 0.00 in0.0 mm 0.00 in0.0 mm 0.00 in0.0 mm
02:51 PM 84.9°F29.4°C 57.2°F14.0°C 39% 6.0 mph SE9.7 kmh SE 11.0 mph17.7 kmh 30.05 in1017.6 mb 0.00 in0.0 mm 0.00 in0.0 mm 0.00 in0.0 mm
02:53 PM 84.7°F29.3°C 57.0°F13.9°C 39% 5.6 mph S9.0 kmh S 9.6 mph15.4 kmh 30.05 in1017.6 mb 0.00 in0.0 mm 0.00 in0.0 mm 0.00 in0.0 mm
02:55 PM 84.7°F29.3°C 57.0°F13.9°C 39% 6.7 mph NNE10.8 kmh NNE 11.9 mph19.2 kmh 30.05 in1017.6 mb 0.00 in0.0 mm 0.00 in0.0 mm 0.00 in0.0 mm
02:57 PM 84.6°F29.2°C 56.8°F13.8°C 39% 7.8 mph E12.6 kmh E 13.4 mph21.6 kmh 30.05 in1017.6 mb 0.00 in0.0 mm 0.00 in0.0 mm 0.00 in0.0 mm
03:00 PM 84.4°F29.1°C 56.7°F13.7°C 39% 7.6 mph ESE12.2 kmh ESE 16.6 mph26.7 kmh 30.05 in1017.6 mb 0.00 in0.0 mm 0.00 in0.0 mm 0.00 in0.0 mm
03:02 PM 84.0°F28.9°C 56.5°F13.6°C 39% 4.9 mph S7.9 kmh S 3.6 mph5.8 kmh 30.05 in1017.6 mb 0.00 in0.0 mm 0.00 in0.0 mm 0.00 in0.0 mm
03:04 PM 83.8°F28.8°C 56.3°F13.5°C 39% 3.4 mph NW5.5 kmh NW 3.1 mph5.0 kmh 30.05 in1017.6 mb 0.00 in0.0 mm 0.00 in0.0 mm 0.00 in0.0 mm
03:06 PM 84.0°F28.9°C 56.5°F13.6°C 39% 2.9 mph NE4.7 kmh NE 4.5 mph7.2 kmh 30.05 in1017.6 mb 0.00 in0.0 mm 0.00 in0.0 mm 0.00 in0.0 mm
03:09 PM 84.6°F29.2°C 56.8°F13.8°C 39% 2.7 mph WSW4.3 kmh WSW 4.0 mph6.4 kmh 30.05 in1017.6 mb 0.00 in0.0 mm 0.00 in0.0 mm 0.00 in0.0 mm
03:11 PM 84.9°F29.4°C 57.2°F14.0°C 39% 2.9 mph NE4.7 kmh NE 5.1 mph8.2 kmh 30.05 in1017.6 mb 0.00 in0.0 mm 0.00 in0.0 mm 0.00 in0.0 mm
03:13 PM 85.6°F29.8°C 57.2°F14.0°C 38% 2.5 mph SSE4.0 kmh SSE 3.8 mph6.1 kmh 30.05 in1017.6 mb 0.00 in0.0 mm 0.00 in0.0 mm 0.00 in0.0 mm
03:15 PM 85.8°F29.9°C 56.5°F13.6°C 37% 4.3 mph E6.9 kmh E 11.9 mph19.2 kmh 30.05 in1017.6 mb 0.00 in0.0 mm 0.00 in0.0 mm 0.00 in0.0 mm
03:17 PM 86.0°F30.0°C 56.7°F13.7°C 37% 4.7 mph SE7.6 kmh SE 9.6 mph15.4 kmh 30.05 in1017.6 mb 0.00 in0.0 mm 0.00 in0.0 mm 0.00 in0.0 mm
03:19 PM 85.5°F29.7°C 56.3°F13.5°C 37% 4.3 mph E6.9 kmh E 8.1 mph13.0 kmh 30.05 in1017.6 mb 0.00 in0.0 mm 0.00 in0.0 mm 0.00 in0.0 mm
03:22 PM 85.1°F29.5°C 56.7°F13.7°C 38% 3.6 mph SSE5.8 kmh SSE 6.9 mph11.1 kmh 30.05 in1017.6 mb 0.00 in0.0 mm 0.00 in0.0 mm 0.00 in0.0 mm
03:24 PM 85.5°F29.7°C 57.0°F13.9°C 38% 2.7 mph E4.3 kmh E 4.5 mph7.2 kmh 30.05 in1017.6 mb 0.00 in0.0 mm 0.00 in0.0 mm 0.00 in0.0 mm
03:28 PM 85.8°F29.9°C 57.2°F14.0°C 38% 5.4 mph E8.7 kmh E 10.1 mph16.3 kmh 30.04 in1017.3 mb 0.00 in0.0 mm 0.00 in0.0 mm 0.00 in0.0 mm
03:30 PM 85.6°F29.8°C 57.2°F14.0°C 38% 4.9 mph NNE7.9 kmh NNE 9.2 mph14.8 kmh 30.05 in1017.6 mb 0.00 in0.0 mm 0.00 in0.0 mm 0.00 in0.0 mm
03:33 PM 85.8°F29.9°C 57.2°F14.0°C 38% 3.8 mph NNE6.1 kmh NNE 6.3 mph10.1 kmh 30.05 in1017.6 mb 0.00 in0.0 mm 0.00 in0.0 mm 0.00 in0.0 mm
03:35 PM 85.8°F29.9°C 57.2°F14.0°C 38% 2.9 mph ESE4.7 kmh ESE 4.9 mph7.9 kmh 30.04 in1017.3 mb 0.00 in0.0 mm 0.00 in0.0 mm 0.00 in0.0 mm
03:37 PM 86.2°F30.1°C 57.6°F14.2°C 38% 3.4 mph E5.5 kmh E 5.6 mph9.0 kmh 30.04 in1017.3 mb 0.00 in0.0 mm 0.00 in0.0 mm 0.00 in0.0 mm
03:39 PM 86.2°F30.1°C 56.8°F13.8°C 37% 5.1 mph E8.2 kmh E 12.1 mph19.5 kmh 30.05 in1017.6 mb 0.00 in0.0 mm 0.00 in0.0 mm 0.00 in0.0 mm
03:41 PM 85.8°F29.9°C 56.5°F13.6°C 37% 5.4 mph WNW8.7 kmh WNW 11.4 mph18.3 kmh 30.05 in1017.6 mb 0.00 in0.0 mm 0.00 in0.0 mm 0.00 in0.0 mm
03:44 PM 85.8°F29.9°C 56.5°F13.6°C 37% 5.1 mph ENE8.2 kmh ENE 10.1 mph16.3 kmh 30.05 in1017.6 mb 0.00 in0.0 mm 0.00 in0.0 mm 0.00 in0.0 mm
03:46 PM 85.5°F29.7°C 56.3°F13.5°C 37% 5.1 mph ESE8.2 kmh ESE 8.9 mph14.3 kmh 30.04 in1017.3 mb 0.00 in0.0 mm 0.00 in0.0 mm 0.00 in0.0 mm
03:48 PM 85.5°F29.7°C 57.0°F13.9°C 38% 4.5 mph ENE7.2 kmh ENE 8.9 mph14.3 kmh 30.05 in1017.6 mb 0.00 in0.0 mm 0.00 in0.0 mm 0.00 in0.0 mm
03:50 PM 85.6°F29.8°C 57.2°F14.0°C 38% 5.1 mph ESE8.2 kmh ESE 7.8 mph12.6 kmh 30.05 in1017.6 mb 0.00 in0.0 mm 0.00 in0.0 mm 0.00 in0.0 mm
03:53 PM 85.6°F29.8°C 57.2°F14.0°C 38% 3.6 mph SW5.8 kmh SW 6.7 mph10.8 kmh 30.04 in1017.3 mb 0.00 in0.0 mm 0.00 in0.0 mm 0.00 in0.0 mm
03:55 PM 85.3°F29.6°C 56.8°F13.8°C 38% 5.8 mph ENE9.3 kmh ENE 14.1 mph22.7 kmh 30.04 in1017.3 mb 0.00 in0.0 mm 0.00 in0.0 mm 0.00 in0.0 mm
03:57 PM 85.5°F29.7°C 57.0°F13.9°C 38% 6.9 mph E11.1 kmh E 11.9 mph19.2 kmh 30.05 in1017.6 mb 0.00 in0.0 mm 0.00 in0.0 mm 0.00 in0.0 mm
03:59 PM 85.3°F29.6°C 56.8°F13.8°C 38% 8.1 mph E13.0 kmh E 13.6 mph21.9 kmh 30.05 in1017.6 mb 0.00 in0.0 mm 0.00 in0.0 mm 0.00 in0.0 mm
04:01 PM 85.6°F29.8°C 56.3°F13.5°C 37% 6.0 mph ENE9.7 kmh ENE 9.4 mph15.1 kmh 30.05 in1017.6 mb 0.00 in0.0 mm 0.00 in0.0 mm 0.00 in0.0 mm
04:04 PM 85.6°F29.8°C 56.3°F13.5°C 37% 3.8 mph WNW6.1 kmh WNW 4.7 mph7.6 kmh 30.04 in1017.3 mb 0.00 in0.0 mm 0.00 in0.0 mm 0.00 in0.0 mm
04:06 PM 85.6°F29.8°C 57.2°F14.0°C 38% 2.5 mph SE4.0 kmh SE 2.2 mph3.5 kmh 30.05 in1017.6 mb 0.00 in0.0 mm 0.00 in0.0 mm 0.00 in0.0 mm
04:08 PM 85.8°F29.9°C 57.2°F14.0°C 38% 2.2 mph SE3.5 kmh SE 4.9 mph7.9 kmh 30.04 in1017.3 mb 0.00 in0.0 mm 0.00 in0.0 mm 0.00 in0.0 mm
04:10 PM 86.2°F30.1°C 57.6°F14.2°C 38% 1.8 mph 2.9 kmh 2.5 mph4.0 kmh 30.05 in1017.6 mb 0.00 in0.0 mm 0.00 in0.0 mm 0.00 in0.0 mm
04:12 PM 86.4°F30.2°C 57.0°F13.9°C 37% 2.9 mph E4.7 kmh E 7.2 mph11.6 kmh 30.05 in1017.6 mb 0.00 in0.0 mm 0.00 in0.0 mm 0.00 in0.0 mm
04:15 PM 86.7°F30.4°C 57.4°F14.1°C 37% 3.4 mph NNW5.5 kmh NNW 11.6 mph18.7 kmh 30.05 in1017.6 mb 0.00 in0.0 mm 0.00 in0.0 mm 0.00 in0.0 mm
04:17 PM 86.9°F30.5°C 57.6°F14.2°C 37% 2.9 mph ESE4.7 kmh ESE 4.0 mph6.4 kmh 30.05 in1017.6 mb 0.00 in0.0 mm 0.00 in0.0 mm 0.00 in0.0 mm
04:19 PM 87.4°F30.8°C 57.2°F14.0°C 36% 4.9 mph E7.9 kmh E 11.9 mph19.2 kmh 30.05 in1017.6 mb 0.00 in0.0 mm 0.00 in0.0 mm 0.00 in0.0 mm
04:21 PM 86.9°F30.5°C 56.7°F13.7°C 36% 4.9 mph ENE7.9 kmh ENE 15.4 mph24.8 kmh 30.04 in1017.3 mb 0.00 in0.0 mm 0.00 in0.0 mm 0.00 in0.0 mm
04:24 PM 86.7°F30.4°C 57.4°F14.1°C 37% 5.6 mph NNW9.0 kmh NNW 11.6 mph18.7 kmh 30.05 in1017.6 mb 0.00 in0.0 mm 0.00 in0.0 mm 0.00 in0.0 mm
04:26 PM 86.5°F30.3°C 57.2°F14.0°C 37% 5.1 mph E8.2 kmh E 10.3 mph16.6 kmh 30.05 in1017.6 mb 0.00 in0.0 mm 0.00 in0.0 mm 0.00 in0.0 mm
04:28 PM 85.8°F29.9°C 57.2°F14.0°C 38% 6.5 mph E10.5 kmh E 10.5 mph16.9 kmh 30.05 in1017.6 mb 0.00 in0.0 mm 0.00 in0.0 mm 0.00 in0.0 mm
04:30 PM 85.3°F29.6°C 56.8°F13.8°C 38% 5.6 mph WSW9.0 kmh WSW 10.3 mph16.6 kmh 30.05 in1017.6 mb 0.00 in0.0 mm 0.00 in0.0 mm 0.00 in0.0 mm
04:32 PM 84.9°F29.4°C 57.2°F14.0°C 39% 5.6 mph NE9.0 kmh NE 9.2 mph14.8 kmh 30.06 in1017.9 mb 0.00 in0.0 mm 0.00 in0.0 mm 0.00 in0.0 mm
04:34 PM 84.7°F29.3°C 57.0°F13.9°C 39% 6.7 mph E10.8 kmh E 12.1 mph19.5 kmh 30.05 in1017.6 mb 0.00 in0.0 mm 0.00 in0.0 mm 0.00 in0.0 mm
04:36 PM 84.7°F29.3°C 57.0°F13.9°C 39% 5.4 mph ENE8.7 kmh ENE 6.3 mph10.1 kmh 30.05 in1017.6 mb 0.00 in0.0 mm 0.00 in0.0 mm 0.00 in0.0 mm
04:39 PM 84.7°F29.3°C 57.0°F13.9°C 39% 5.8 mph ENE9.3 kmh ENE 9.2 mph14.8 kmh 30.05 in1017.6 mb 0.00 in0.0 mm 0.00 in0.0 mm 0.00 in0.0 mm
04:41 PM 84.7°F29.3°C 57.7°F14.3°C 40% 5.1 mph ESE8.2 kmh ESE 8.5 mph13.7 kmh 30.05 in1017.6 mb 0.00 in0.0 mm 0.00 in0.0 mm 0.00 in0.0 mm
04:43 PM 84.7°F29.3°C 57.0°F13.9°C 39% 6.3 mph SE10.1 kmh SE 9.6 mph15.4 kmh 30.05 in1017.6 mb 0.00 in0.0 mm 0.00 in0.0 mm 0.00 in0.0 mm
04:45 PM 84.4°F29.1°C 57.4°F14.1°C 40% 5.8 mph S9.3 kmh S 10.5 mph16.9 kmh 30.05 in1017.6 mb 0.00 in0.0 mm 0.00 in0.0 mm 0.00 in0.0 mm
04:47 PM 84.4°F29.1°C 57.4°F14.1°C 40% 7.4 mph E11.9 kmh E 12.3 mph19.8 kmh 30.05 in1017.6 mb 0.00 in0.0 mm 0.00 in0.0 mm 0.00 in0.0 mm
04:50 PM 84.4°F29.1°C 57.4°F14.1°C 40% 7.4 mph ENE11.9 kmh ENE 10.3 mph16.6 kmh 30.05 in1017.6 mb 0.00 in0.0 mm 0.00 in0.0 mm 0.00 in0.0 mm
04:52 PM 84.7°F29.3°C 57.7°F14.3°C 40% 7.6 mph SE12.2 kmh SE 13.0 mph20.9 kmh 30.05 in1017.6 mb 0.00 in0.0 mm 0.00 in0.0 mm 0.00 in0.0 mm
04:54 PM 84.9°F29.4°C 57.2°F14.0°C 39% 7.8 mph E12.6 kmh E 13.0 mph20.9 kmh 30.05 in1017.6 mb 0.00 in0.0 mm 0.00 in0.0 mm 0.00 in0.0 mm
04:56 PM 84.7°F29.3°C 57.0°F13.9°C 39% 7.6 mph ESE12.2 kmh ESE 11.2 mph18.0 kmh 30.05 in1017.6 mb 0.00 in0.0 mm 0.00 in0.0 mm 0.00 in0.0 mm
04:59 PM 84.7°F29.3°C 57.0°F13.9°C 39% 6.5 mph ENE10.5 kmh ENE 9.2 mph14.8 kmh 30.05 in1017.6 mb 0.00 in0.0 mm 0.00 in0.0 mm 0.00 in0.0 mm
05:01 PM 84.9°F29.4°C 57.2°F14.0°C 39% 4.9 mph ESE7.9 kmh ESE 5.6 mph9.0 kmh 30.05 in1017.6 mb 0.00 in0.0 mm 0.00 in0.0 mm 0.00 in0.0 mm
05:03 PM 84.9°F29.4°C 57.2°F14.0°C 39% 4.7 mph E7.6 kmh E 7.6 mph12.2 kmh 30.05 in1017.6 mb 0.00 in0.0 mm 0.00 in0.0 mm 0.00 in0.0 mm
05:05 PM 84.7°F29.3°C 57.0°F13.9°C 39% 4.3 mph SE6.9 kmh SE 12.8 mph20.6 kmh 30.05 in1017.6 mb 0.00 in0.0 mm 0.00 in0.0 mm 0.00 in0.0 mm
05:07 PM 84.7°F29.3°C 57.0°F13.9°C 39% 4.0 mph SSE6.4 kmh SSE 12.8 mph20.6 kmh 30.05 in1017.6 mb 0.00 in0.0 mm 0.00 in0.0 mm 0.00 in0.0 mm
05:09 PM 84.7°F29.3°C 57.0°F13.9°C 39% 3.1 mph NNE5.0 kmh NNE 3.8 mph6.1 kmh 30.05 in1017.6 mb 0.00 in0.0 mm 0.00 in0.0 mm 0.00 in0.0 mm
05:12 PM 84.9°F29.4°C 57.2°F14.0°C 39% 2.9 mph ESE4.7 kmh ESE 9.2 mph14.8 kmh 30.05 in1017.6 mb 0.00 in0.0 mm 0.00 in0.0 mm 0.00 in0.0 mm
05:14 PM 84.9°F29.4°C 57.2°F14.0°C 39% 5.1 mph E8.2 kmh E 9.6 mph15.4 kmh 30.05 in1017.6 mb 0.00 in0.0 mm 0.00 in0.0 mm 0.00 in0.0 mm
05:16 PM 84.7°F29.3°C 57.0°F13.9°C 39% 5.8 mph E9.3 kmh E 10.3 mph16.6 kmh 30.05 in1017.6 mb 0.00 in0.0 mm 0.00 in0.0 mm 0.00 in0.0 mm
05:18 PM 84.7°F29.3°C 57.0°F13.9°C 39% 4.5 mph E7.2 kmh E 4.5 mph7.2 kmh 30.05 in1017.6 mb 0.00 in0.0 mm 0.00 in0.0 mm 0.00 in0.0 mm
05:21 PM 84.6°F29.2°C 56.8°F13.8°C 39% 4.9 mph ENE7.9 kmh ENE 7.8 mph12.6 kmh 30.05 in1017.6 mb 0.00 in0.0 mm 0.00 in0.0 mm 0.00 in0.0 mm
05:23 PM 84.0°F28.9°C 57.0°F13.9°C 40% 5.4 mph NE8.7 kmh NE 11.4 mph18.3 kmh 30.05 in1017.6 mb 0.00 in0.0 mm 0.00 in0.0 mm 0.00 in0.0 mm
05:25 PM 83.8°F28.8°C 57.0°F13.9°C 40% 4.5 mph E7.2 kmh E 6.3 mph10.1 kmh 30.05 in1017.6 mb 0.00 in0.0 mm 0.00 in0.0 mm 0.00 in0.0 mm
05:27 PM 83.8°F28.8°C 57.0°F13.9°C 40% 4.5 mph NNE7.2 kmh NNE 7.2 mph11.6 kmh 30.05 in1017.6 mb 0.00 in0.0 mm 0.00 in0.0 mm 0.00 in0.0 mm
05:30 PM 83.8°F28.8°C 57.0°F13.9°C 40% 5.4 mph ESE8.7 kmh ESE 7.6 mph12.2 kmh 30.05 in1017.6 mb 0.00 in0.0 mm 0.00 in0.0 mm 0.00 in0.0 mm
05:32 PM 83.5°F28.6°C 56.7°F13.7°C 40% 4.5 mph ENE7.2 kmh ENE 6.7 mph10.8 kmh 30.05 in1017.6 mb 0.00 in0.0 mm 0.00 in0.0 mm 0.00 in0.0 mm
05:34 PM 83.5°F28.6°C 56.7°F13.7°C 40% 4.5 mph E7.2 kmh E 8.3 mph13.4 kmh 30.05 in1017.6 mb 0.00 in0.0 mm 0.00 in0.0 mm 0.00 in0.0 mm
05:36 PM 83.5°F28.6°C 56.7°F13.7°C 40% 4.3 mph E6.9 kmh E 5.1 mph8.2 kmh 30.05 in1017.6 mb 0.00 in0.0 mm 0.00 in0.0 mm 0.00 in0.0 mm
05:39 PM 83.3°F28.5°C 56.5°F13.6°C 40% 4.0 mph E6.4 kmh E 6.5 mph10.5 kmh 30.05 in1017.6 mb 0.00 in0.0 mm 0.00 in0.0 mm 0.00 in0.0 mm
05:41 PM 83.3°F28.5°C 56.5°F13.6°C 40% 3.6 mph NNE5.8 kmh NNE 4.5 mph7.2 kmh 30.05 in1017.6 mb 0.00 in0.0 mm 0.00 in0.0 mm 0.00 in0.0 mm
05:43 PM 83.5°F28.6°C 56.7°F13.7°C 40% 4.9 mph ENE7.9 kmh ENE 11.6 mph18.7 kmh 30.06 in1017.9 mb 0.00 in0.0 mm 0.00 in0.0 mm 0.00 in0.0 mm
05:45 PM 83.3°F28.5°C 56.5°F13.6°C 40% 6.0 mph E9.7 kmh E 8.9 mph14.3 kmh 30.06 in1017.9 mb 0.00 in0.0 mm 0.00 in0.0 mm 0.00 in0.0 mm
05:48 PM 83.1°F28.4°C 56.3°F13.5°C 40% 6.0 mph SSW9.7 kmh SSW 9.6 mph15.4 kmh 30.05 in1017.6 mb 0.00 in0.0 mm 0.00 in0.0 mm 0.00 in0.0 mm
05:50 PM 82.8°F28.2°C 56.7°F13.7°C 41% 8.1 mph E13.0 kmh E 15.4 mph24.8 kmh 30.05 in1017.6 mb 0.00 in0.0 mm 0.00 in0.0 mm 0.00 in0.0 mm
05:52 PM 82.6°F28.1°C 56.5°F13.6°C 41% 7.4 mph ESE11.9 kmh ESE 11.0 mph17.7 kmh 30.05 in1017.6 mb 0.00 in0.0 mm 0.00 in0.0 mm 0.00 in0.0 mm
05:54 PM 82.4°F28.0°C 56.3°F13.5°C 41% 7.8 mph NE12.6 kmh NE 11.2 mph18.0 kmh 30.05 in1017.6 mb 0.00 in0.0 mm 0.00 in0.0 mm 0.00 in0.0 mm
05:57 PM 82.2°F27.9°C 56.1°F13.4°C 41% 5.6 mph SE9.0 kmh SE 6.7 mph10.8 kmh 30.05 in1017.6 mb 0.00 in0.0 mm 0.00 in0.0 mm 0.00 in0.0 mm
05:59 PM 82.2°F27.9°C 56.1°F13.4°C 41% 6.0 mph E9.7 kmh E 8.9 mph14.3 kmh 30.05 in1017.6 mb 0.00 in0.0 mm 0.00 in0.0 mm 0.00 in0.0 mm
06:01 PM 82.6°F28.1°C 56.5°F13.6°C 41% 5.8 mph ENE9.3 kmh ENE 8.9 mph14.3 kmh 30.06 in1017.9 mb 0.00 in0.0 mm 0.00 in0.0 mm 0.00 in0.0 mm
06:03 PM 82.6°F28.1°C 56.5°F13.6°C 41% 4.9 mph SSE7.9 kmh SSE 8.3 mph13.4 kmh 30.05 in1017.6 mb 0.00 in0.0 mm 0.00 in0.0 mm 0.00 in0.0 mm
06:06 PM 82.6°F28.1°C 56.5°F13.6°C 41% 4.9 mph E7.9 kmh E 8.3 mph13.4 kmh 30.06 in1017.9 mb 0.00 in0.0 mm 0.00 in0.0 mm 0.00 in0.0 mm
06:08 PM 82.6°F28.1°C 56.5°F13.6°C 41% 6.0 mph NNE9.7 kmh NNE 9.6 mph15.4 kmh 30.06 in1017.9 mb 0.00 in0.0 mm 0.00 in0.0 mm 0.00 in0.0 mm
06:10 PM 82.2°F27.9°C 56.8°F13.8°C 42% 6.7 mph ENE10.8 kmh ENE 13.0 mph20.9 kmh 30.06 in1017.9 mb 0.00 in0.0 mm 0.00 in0.0 mm 0.00 in0.0 mm
06:12 PM 81.9°F27.7°C 56.5°F13.6°C 42% 7.6 mph E12.2 kmh E 12.8 mph20.6 kmh 30.06 in1017.9 mb 0.00 in0.0 mm 0.00 in0.0 mm 0.00 in0.0 mm
06:15 PM 81.3°F27.4°C 56.7°F13.7°C 43% 8.3 mph E13.4 kmh E 11.4 mph18.3 kmh 30.06 in1017.9 mb 0.00 in0.0 mm 0.00 in0.0 mm 0.00 in0.0 mm
06:17 PM 81.3°F27.4°C 57.4°F14.1°C 44% 6.7 mph NE10.8 kmh NE 7.6 mph12.2 kmh 30.06 in1017.9 mb 0.00 in0.0 mm 0.00 in0.0 mm 0.00 in0.0 mm
06:19 PM 81.1°F27.3°C 56.5°F13.6°C 43% 6.5 mph ENE10.5 kmh ENE 13.0 mph20.9 kmh 30.06 in1017.9 mb 0.00 in0.0 mm 0.00 in0.0 mm 0.00 in0.0 mm
06:22 PM 81.1°F27.3°C 56.5°F13.6°C 43% 6.0 mph ENE9.7 kmh ENE 10.7 mph17.2 kmh 30.06 in1017.9 mb 0.00 in0.0 mm 0.00 in0.0 mm 0.00 in0.0 mm
06:24 PM 81.0°F27.2°C 56.3°F13.5°C 43% 4.7 mph ESE7.6 kmh ESE 6.0 mph9.7 kmh 30.06 in1017.9 mb 0.00 in0.0 mm 0.00 in0.0 mm 0.00 in0.0 mm
06:26 PM 81.0°F27.2°C 57.0°F13.9°C 44% 5.6 mph ENE9.0 kmh ENE 8.9 mph14.3 kmh 30.06 in1017.9 mb 0.00 in0.0 mm 0.00 in0.0 mm 0.00 in0.0 mm
06:28 PM 80.6°F27.0°C 57.4°F14.1°C 45% 5.4 mph E8.7 kmh E 8.7 mph14.0 kmh 30.06 in1017.9 mb 0.00 in0.0 mm 0.00 in0.0 mm 0.00 in0.0 mm
06:30 PM 80.4°F26.9°C 57.2°F14.0°C 45% 4.7 mph E7.6 kmh E 9.6 mph15.4 kmh 30.06 in1017.9 mb 0.00 in0.0 mm 0.00 in0.0 mm 0.00 in0.0 mm
06:32 PM 80.2°F26.8°C 57.0°F13.9°C 45% 4.9 mph E7.9 kmh E 9.8 mph15.8 kmh 30.06 in1017.9 mb 0.00 in0.0 mm 0.00 in0.0 mm 0.00 in0.0 mm
06:35 PM 80.2°F26.8°C 57.0°F13.9°C 45% 4.5 mph ENE7.2 kmh ENE 6.7 mph10.8 kmh 30.06 in1017.9 mb 0.00 in0.0 mm 0.00 in0.0 mm 0.00 in0.0 mm
06:37 PM 79.9°F26.6°C 57.2°F14.0°C 46% 4.7 mph ESE7.6 kmh ESE 6.7 mph10.8 kmh 30.06 in1017.9 mb 0.00 in0.0 mm 0.00 in0.0 mm 0.00 in0.0 mm
06:39 PM 79.9°F26.6°C 57.2°F14.0°C 46% 6.5 mph E10.5 kmh E 14.1 mph22.7 kmh 30.06 in1017.9 mb 0.00 in0.0 mm 0.00 in0.0 mm 0.00 in0.0 mm
06:41 PM 79.5°F26.4°C 56.8°F13.8°C 46% 6.3 mph ESE10.1 kmh ESE 10.1 mph16.3 kmh 30.06 in1017.9 mb 0.00 in0.0 mm 0.00 in0.0 mm 0.00 in0.0 mm
06:43 PM 79.3°F26.3°C 57.4°F14.1°C 47% 6.5 mph E10.5 kmh E 12.5 mph20.1 kmh 30.06 in1017.9 mb 0.00 in0.0 mm 0.00 in0.0 mm 0.00 in0.0 mm
06:45 PM 79.2°F26.2°C 57.2°F14.0°C 47% 4.5 mph ESE7.2 kmh ESE 5.4 mph8.7 kmh 30.06 in1017.9 mb 0.00 in0.0 mm 0.00 in0.0 mm 0.00 in0.0 mm
06:47 PM 79.0°F26.1°C 57.0°F13.9°C 47% 4.9 mph E7.9 kmh E 11.9 mph19.2 kmh 30.07 in1018.3 mb 0.00 in0.0 mm 0.00 in0.0 mm 0.00 in0.0 mm
06:50 PM 78.6°F25.9°C 57.2°F14.0°C 48% 5.1 mph E8.2 kmh E 9.6 mph15.4 kmh 30.07 in1018.3 mb 0.00 in0.0 mm 0.00 in0.0 mm 0.00 in0.0 mm
06:52 PM 78.4°F25.8°C 57.2°F14.0°C 48% 6.3 mph E10.1 kmh E 11.2 mph18.0 kmh 30.06 in1017.9 mb 0.00 in0.0 mm 0.00 in0.0 mm 0.00 in0.0 mm
06:54 PM 78.1°F25.6°C 57.4°F14.1°C 49% 6.5 mph SE10.5 kmh SE 10.5 mph16.9 kmh 30.06 in1017.9 mb 0.00 in0.0 mm 0.00 in0.0 mm 0.00 in0.0 mm
06:57 PM 78.1°F25.6°C 57.4°F14.1°C 49% 5.4 mph E8.7 kmh E 11.2 mph18.0 kmh 30.06 in1017.9 mb 0.00 in0.0 mm 0.00 in0.0 mm 0.00 in0.0 mm
06:59 PM 77.9°F25.5°C 57.2°F14.0°C 49% 4.9 mph NNE7.9 kmh NNE 7.4 mph11.9 kmh 30.06 in1017.9 mb 0.00 in0.0 mm 0.00 in0.0 mm 0.00 in0.0 mm
07:01 PM 77.9°F25.5°C 57.7°F14.3°C 50% 5.6 mph SSE9.0 kmh SSE 9.2 mph14.8 kmh 30.07 in1018.3 mb 0.00 in0.0 mm 0.00 in0.0 mm 0.00 in0.0 mm
07:03 PM 77.7°F25.4°C 57.6°F14.2°C 50% 4.3 mph ENE6.9 kmh ENE 5.4 mph8.7 kmh 30.06 in1017.9 mb 0.00 in0.0 mm 0.00 in0.0 mm 0.00 in0.0 mm
07:05 PM 77.7°F25.4°C 58.1°F14.5°C 51% 4.7 mph SSE7.6 kmh SSE 6.7 mph10.8 kmh 30.07 in1018.3 mb 0.00 in0.0 mm 0.00 in0.0 mm 0.00 in0.0 mm
07:08 PM 77.5°F25.3°C 57.9°F14.4°C 51% 4.5 mph E7.2 kmh E 7.8 mph12.6 kmh 30.07 in1018.3 mb 0.00 in0.0 mm 0.00 in0.0 mm 0.00 in0.0 mm
07:10 PM 77.4°F25.2°C 58.3°F14.6°C 52% 4.7 mph ESE7.6 kmh ESE 6.0 mph9.7 kmh 30.07 in1018.3 mb 0.00 in0.0 mm 0.00 in0.0 mm 0.00 in0.0 mm
07:12 PM 77.2°F25.1°C 58.3°F14.6°C 52% 4.0 mph E6.4 kmh E 5.6 mph9.0 kmh 30.07 in1018.3 mb 0.00 in0.0 mm 0.00 in0.0 mm 0.00 in0.0 mm
07:14 PM 77.0°F25.0°C 58.1°F14.5°C 52% 3.8 mph NW6.1 kmh NW 6.0 mph9.7 kmh 30.07 in1018.3 mb 0.00 in0.0 mm 0.00 in0.0 mm 0.00 in0.0 mm
07:17 PM 77.0°F25.0°C 58.1°F14.5°C 52% 2.9 mph NE4.7 kmh NE 4.3 mph6.9 kmh 30.07 in1018.3 mb 0.00 in0.0 mm 0.00 in0.0 mm 0.00 in0.0 mm
07:19 PM 76.8°F24.9°C 57.9°F14.4°C 52% 4.0 mph E6.4 kmh E 7.4 mph11.9 kmh 30.07 in1018.3 mb 0.00 in0.0 mm 0.00 in0.0 mm 0.00 in0.0 mm
07:21 PM 76.8°F24.9°C 58.5°F14.7°C 53% 3.1 mph NNW5.0 kmh NNW 4.5 mph7.2 kmh 30.07 in1018.3 mb 0.00 in0.0 mm 0.00 in0.0 mm 0.00 in0.0 mm
07:23 PM 76.8°F24.9°C 58.5°F14.7°C 53% 2.5 mph E4.0 kmh E 3.1 mph5.0 kmh 30.08 in1018.6 mb 0.00 in0.0 mm 0.00 in0.0 mm 0.00 in0.0 mm
07:25 PM 76.8°F24.9°C 58.5°F14.7°C 53% 2.0 mph NW3.2 kmh NW 4.0 mph6.4 kmh 30.08 in1018.6 mb 0.00 in0.0 mm 0.00 in0.0 mm 0.00 in0.0 mm
07:28 PM 76.8°F24.9°C 58.5°F14.7°C 53% 1.8 mph E2.9 kmh E 2.7 mph4.3 kmh 30.08 in1018.6 mb 0.00 in0.0 mm 0.00 in0.0 mm 0.00 in0.0 mm
07:30 PM 76.8°F24.9°C 58.5°F14.7°C 53% 2.0 mph ENE3.2 kmh ENE 4.7 mph7.6 kmh 30.08 in1018.6 mb 0.00 in0.0 mm 0.00 in0.0 mm 0.00 in0.0 mm
07:32 PM 76.6°F24.8°C 58.3°F14.6°C 53% 2.0 mph E3.2 kmh E 3.8 mph6.1 kmh 30.08 in1018.6 mb 0.00 in0.0 mm 0.00 in0.0 mm 0.00 in0.0 mm
07:35 PM 76.6°F24.8°C 58.3°F14.6°C 53% 1.3 mph E2.1 kmh E 2.2 mph3.5 kmh 30.08 in1018.6 mb 0.00 in0.0 mm 0.00 in0.0 mm 0.00 in0.0 mm
07:37 PM 76.8°F24.9°C 58.5°F14.7°C 53% 1.3 mph NNE2.1 kmh NNE 3.4 mph5.5 kmh 30.08 in1018.6 mb 0.00 in0.0 mm 0.00 in0.0 mm 0.00 in0.0 mm
07:39 PM 76.6°F24.8°C 58.3°F14.6°C 53% 1.1 mph NE1.8 kmh NE 2.9 mph4.7 kmh 30.08 in1018.6 mb 0.00 in0.0 mm 0.00 in0.0 mm 0.00 in0.0 mm
07:41 PM 76.6°F24.8°C 58.3°F14.6°C 53% 1.3 mph 2.1 kmh 3.1 mph5.0 kmh 30.08 in1018.6 mb 0.00 in0.0 mm 0.00 in0.0 mm 0.00 in0.0 mm
07:43 PM 76.6°F24.8°C 58.3°F14.6°C 53% 1.1 mph 1.8 kmh 2.2 mph3.5 kmh 30.08 in1018.6 mb 0.00 in0.0 mm 0.00 in0.0 mm 0.00 in0.0 mm
07:45 PM 76.6°F24.8°C 58.3°F14.6°C 53% 1.1 mph WNW1.8 kmh WNW 2.5 mph4.0 kmh 30.08 in1018.6 mb 0.00 in0.0 mm 0.00 in0.0 mm 0.00 in0.0 mm
07:48 PM 76.6°F24.8°C 58.3°F14.6°C 53% 1.8 mph E2.9 kmh E 3.4 mph5.5 kmh 30.09 in1019.0 mb 0.00 in0.0 mm 0.00 in0.0 mm 0.00 in0.0 mm
07:50 PM 76.5°F24.7°C 58.1°F14.5°C 53% 1.6 mph ENE2.6 kmh ENE 3.8 mph6.1 kmh 30.09 in1019.0 mb 0.00 in0.0 mm 0.00 in0.0 mm 0.00 in0.0 mm
07:52 PM 76.3°F24.6°C 57.9°F14.4°C 53% 1.6 mph NNE2.6 kmh NNE 3.4 mph5.5 kmh 30.09 in1019.0 mb 0.00 in0.0 mm 0.00 in0.0 mm 0.00 in0.0 mm
07:54 PM 76.1°F24.5°C 57.7°F14.3°C 53% 1.6 mph 2.6 kmh 2.9 mph4.7 kmh 30.08 in1018.6 mb 0.00 in0.0 mm 0.00 in0.0 mm 0.00 in0.0 mm
07:57 PM 76.1°F24.5°C 57.7°F14.3°C 53% 2.9 mph E4.7 kmh E 8.5 mph13.7 kmh 30.09 in1019.0 mb 0.00 in0.0 mm 0.00 in0.0 mm 0.00 in0.0 mm
07:59 PM 75.9°F24.4°C 57.6°F14.2°C 53% 2.7 mph SSE4.3 kmh SSE 3.8 mph6.1 kmh 30.09 in1019.0 mb 0.00 in0.0 mm 0.00 in0.0 mm 0.00 in0.0 mm
08:01 PM 75.9°F24.4°C 57.6°F14.2°C 53% 2.5 mph NE4.0 kmh NE 4.0 mph6.4 kmh 30.09 in1019.0 mb 0.00 in0.0 mm 0.00 in0.0 mm 0.00 in0.0 mm
08:03 PM 75.7°F24.3°C 57.4°F14.1°C 53% 2.5 mph ESE4.0 kmh ESE 5.1 mph8.2 kmh 30.09 in1019.0 mb 0.00 in0.0 mm 0.00 in0.0 mm 0.00 in0.0 mm
08:05 PM 75.7°F24.3°C 57.4°F14.1°C 53% 2.5 mph ESE4.0 kmh ESE 4.9 mph7.9 kmh 30.09 in1019.0 mb 0.00 in0.0 mm 0.00 in0.0 mm 0.00 in0.0 mm
08:07 PM 75.7°F24.3°C 57.4°F14.1°C 53% 2.0 mph SW3.2 kmh SW 3.1 mph5.0 kmh 30.09 in1019.0 mb 0.00 in0.0 mm 0.00 in0.0 mm 0.00 in0.0 mm
08:10 PM 75.6°F24.2°C 57.2°F14.0°C 53% 1.8 mph SSE2.9 kmh SSE 5.1 mph8.2 kmh 30.09 in1019.0 mb 0.00 in0.0 mm 0.00 in0.0 mm 0.00 in0.0 mm
08:12 PM 75.4°F24.1°C 57.0°F13.9°C 53% 2.2 mph E3.5 kmh E 5.1 mph8.2 kmh 30.09 in1019.0 mb 0.00 in0.0 mm 0.00 in0.0 mm 0.00 in0.0 mm
08:14 PM 75.4°F24.1°C 57.0°F13.9°C 53% 1.6 mph NE2.6 kmh NE 4.9 mph7.9 kmh 30.09 in1019.0 mb 0.00 in0.0 mm 0.00 in0.0 mm 0.00 in0.0 mm
08:16 PM 75.4°F24.1°C 57.0°F13.9°C 53% 2.7 mph SSE4.3 kmh SSE 9.2 mph14.8 kmh 30.09 in1019.0 mb 0.00 in0.0 mm 0.00 in0.0 mm 0.00 in0.0 mm
08:18 PM 75.0°F23.9°C 57.2°F14.0°C 54% 1.8 mph WSW2.9 kmh WSW 2.2 mph3.5 kmh 30.09 in1019.0 mb 0.00 in0.0 mm 0.00 in0.0 mm 0.00 in0.0 mm
08:21 PM 75.0°F23.9°C 56.7°F13.7°C 53% 1.6 mph 2.6 kmh 3.1 mph5.0 kmh 30.09 in1019.0 mb 0.00 in0.0 mm 0.00 in0.0 mm 0.00 in0.0 mm
08:23 PM 75.0°F23.9°C 57.2°F14.0°C 54% 1.3 mph SW2.1 kmh SW 2.2 mph3.5 kmh 30.09 in1019.0 mb 0.00 in0.0 mm 0.00 in0.0 mm 0.00 in0.0 mm
08:25 PM 75.0°F23.9°C 57.2°F14.0°C 54% 1.3 mph NW2.1 kmh NW 3.1 mph5.0 kmh 30.09 in1019.0 mb 0.00 in0.0 mm 0.00 in0.0 mm 0.00 in0.0 mm
08:27 PM 74.8°F23.8°C 57.0°F13.9°C 54% 0.9 mph SE1.4 kmh SE 0.7 mph1.1 kmh 30.09 in1019.0 mb 0.00 in0.0 mm 0.00 in0.0 mm 0.00 in0.0 mm
08:29 PM 74.8°F23.8°C 57.0°F13.9°C 54% 0.7 mph SE1.1 kmh SE 1.1 mph1.8 kmh 30.10 in1019.3 mb 0.00 in0.0 mm 0.00 in0.0 mm 0.00 in0.0 mm
08:32 PM 74.8°F23.8°C 57.0°F13.9°C 54% 0.7 mph 1.1 kmh 2.9 mph4.7 kmh 30.09 in1019.0 mb 0.00 in0.0 mm 0.00 in0.0 mm 0.00 in0.0 mm
08:34 PM 74.8°F23.8°C 57.0°F13.9°C 54% 1.3 mph ESE2.1 kmh ESE 2.9 mph4.7 kmh 30.10 in1019.3 mb 0.00 in0.0 mm 0.00 in0.0 mm 0.00 in0.0 mm
08:36 PM 74.8°F23.8°C 57.0°F13.9°C 54% 0.9 mph SE1.4 kmh SE 0.9 mph1.4 kmh 30.10 in1019.3 mb 0.00 in0.0 mm 0.00 in0.0 mm 0.00 in0.0 mm
08:38 PM 74.7°F23.7°C 56.8°F13.8°C 54% 0.9 mph SSE1.4 kmh SSE 2.2 mph3.5 kmh 30.10 in1019.3 mb 0.00 in0.0 mm 0.00 in0.0 mm 0.00 in0.0 mm
08:40 PM 74.7°F23.7°C 56.8°F13.8°C 54% 1.1 mph ENE1.8 kmh ENE 4.9 mph7.9 kmh 30.10 in1019.3 mb 0.00 in0.0 mm 0.00 in0.0 mm 0.00 in0.0 mm
08:42 PM 74.7°F23.7°C 56.8°F13.8°C 54% 1.8 mph NNE2.9 kmh NNE 4.5 mph7.2 kmh 30.10 in1019.3 mb 0.00 in0.0 mm 0.00 in0.0 mm 0.00 in0.0 mm
08:44 PM 74.7°F23.7°C 56.8°F13.8°C 54% 1.3 mph E2.1 kmh E 3.1 mph5.0 kmh 30.10 in1019.3 mb 0.00 in0.0 mm 0.00 in0.0 mm 0.00 in0.0 mm
08:47 PM 74.5°F23.6°C 56.7°F13.7°C 54% 1.3 mph SE2.1 kmh SE 2.5 mph4.0 kmh 30.11 in1019.6 mb 0.00 in0.0 mm 0.00 in0.0 mm 0.00 in0.0 mm
08:49 PM 74.5°F23.6°C 56.7°F13.7°C 54% 2.9 mph ESE4.7 kmh ESE 7.4 mph11.9 kmh 30.11 in1019.6 mb 0.00 in0.0 mm 0.00 in0.0 mm 0.00 in0.0 mm
08:51 PM 74.3°F23.5°C 56.7°F13.7°C 54% 3.4 mph SSE5.5 kmh SSE 6.3 mph10.1 kmh 30.11 in1019.6 mb 0.00 in0.0 mm 0.00 in0.0 mm 0.00 in0.0 mm
08:53 PM 74.3°F23.5°C 56.7°F13.7°C 54% 3.1 mph NE5.0 kmh NE 4.5 mph7.2 kmh 30.11 in1019.6 mb 0.00 in0.0 mm 0.00 in0.0 mm 0.00 in0.0 mm
08:56 PM 74.1°F23.4°C 56.5°F13.6°C 54% 2.5 mph NNE4.0 kmh NNE 3.8 mph6.1 kmh 30.11 in1019.6 mb 0.00 in0.0 mm 0.00 in0.0 mm 0.00 in0.0 mm
08:58 PM 74.1°F23.4°C 56.5°F13.6°C 54% 3.1 mph ENE5.0 kmh ENE 8.9 mph14.3 kmh 30.11 in1019.6 mb 0.00 in0.0 mm 0.00 in0.0 mm 0.00 in0.0 mm
09:00 PM 73.9°F23.3°C 56.3°F13.5°C 54% 2.2 mph W3.5 kmh W 3.8 mph6.1 kmh 30.11 in1019.6 mb 0.00 in0.0 mm 0.00 in0.0 mm 0.00 in0.0 mm
09:02 PM 73.9°F23.3°C 56.3°F13.5°C 54% 1.6 mph NNE2.6 kmh NNE 2.0 mph3.2 kmh 30.11 in1019.6 mb 0.00 in0.0 mm 0.00 in0.0 mm 0.00 in0.0 mm
09:04 PM 73.9°F23.3°C 56.3°F13.5°C 54% 2.0 mph NNW3.2 kmh NNW 3.6 mph5.8 kmh 30.11 in1019.6 mb 0.00 in0.0 mm 0.00 in0.0 mm 0.00 in0.0 mm
09:07 PM 73.9°F23.3°C 56.3°F13.5°C 54% 2.0 mph SSE3.2 kmh SSE 3.8 mph6.1 kmh 30.12 in1020.0 mb 0.00 in0.0 mm 0.00 in0.0 mm 0.00 in0.0 mm
09:09 PM 74.1°F23.4°C 56.5°F13.6°C 54% 1.3 mph SSE2.1 kmh SSE 1.3 mph2.1 kmh 30.12 in1020.0 mb 0.00 in0.0 mm 0.00 in0.0 mm 0.00 in0.0 mm
09:11 PM 74.1°F23.4°C 56.5°F13.6°C 54% 0.9 mph S1.4 kmh S 0.9 mph1.4 kmh 30.11 in1019.6 mb 0.00 in0.0 mm 0.00 in0.0 mm 0.00 in0.0 mm
09:13 PM 74.1°F23.4°C 55.9°F13.3°C 53% 1.6 mph 2.6 kmh 6.3 mph10.1 kmh 30.11 in1019.6 mb 0.00 in0.0 mm 0.00 in0.0 mm 0.00 in0.0 mm
09:15 PM 74.1°F23.4°C 55.9°F13.3°C 53% 1.1 mph SSE1.8 kmh SSE 2.2 mph3.5 kmh 30.11 in1019.6 mb 0.00 in0.0 mm 0.00 in0.0 mm 0.00 in0.0 mm
09:18 PM 74.3°F23.5°C 56.1°F13.4°C 53% 0.9 mph WSW1.4 kmh WSW 1.6 mph2.6 kmh 30.11 in1019.6 mb 0.00 in0.0 mm 0.00 in0.0 mm 0.00 in0.0 mm
09:20 PM 74.3°F23.5°C 56.1°F13.4°C 53% 0.7 mph ESE1.1 kmh ESE 1.6 mph2.6 kmh 30.12 in1020.0 mb 0.00 in0.0 mm 0.00 in0.0 mm 0.00 in0.0 mm
09:22 PM 74.3°F23.5°C 56.1°F13.4°C 53% 0.9 mph NE1.4 kmh NE 1.3 mph2.1 kmh 30.12 in1020.0 mb 0.00 in0.0 mm 0.00 in0.0 mm 0.00 in0.0 mm
09:24 PM 74.1°F23.4°C 55.9°F13.3°C 53% 1.6 mph NNE2.6 kmh NNE 2.7 mph4.3 kmh 30.12 in1020.0 mb 0.00 in0.0 mm 0.00 in0.0 mm 0.00 in0.0 mm
09:26 PM 74.1°F23.4°C 55.4°F13.0°C 52% 0.9 mph SSE1.4 kmh SSE 1.8 mph2.9 kmh 30.12 in1020.0 mb 0.00 in0.0 mm 0.00 in0.0 mm 0.00 in0.0 mm
09:28 PM 74.1°F23.4°C 55.4°F13.0°C 52% 1.3 mph NE2.1 kmh NE 3.4 mph5.5 kmh 30.12 in1020.0 mb 0.00 in0.0 mm 0.00 in0.0 mm 0.00 in0.0 mm
09:31 PM 73.9°F23.3°C 55.2°F12.9°C 52% 1.6 mph 2.6 kmh 4.0 mph6.4 kmh 30.12 in1020.0 mb 0.00 in0.0 mm 0.00 in0.0 mm 0.00 in0.0 mm
09:33 PM 73.9°F23.3°C 55.2°F12.9°C 52% 2.0 mph NNE3.2 kmh NNE 7.8 mph12.6 kmh 30.12 in1020.0 mb 0.00 in0.0 mm 0.00 in0.0 mm 0.00 in0.0 mm
09:35 PM 73.9°F23.3°C 55.8°F13.2°C 53% 2.5 mph ENE4.0 kmh ENE 6.5 mph10.5 kmh 30.12 in1020.0 mb 0.00 in0.0 mm 0.00 in0.0 mm 0.00 in0.0 mm
09:37 PM 73.8°F23.2°C 55.6°F13.1°C 53% 2.2 mph SE3.5 kmh SE 3.4 mph5.5 kmh 30.12 in1020.0 mb 0.00 in0.0 mm 0.00 in0.0 mm 0.00 in0.0 mm
09:39 PM 73.8°F23.2°C 55.6°F13.1°C 53% 3.1 mph ESE5.0 kmh ESE 6.5 mph10.5 kmh 30.13 in1020.3 mb 0.00 in0.0 mm 0.00 in0.0 mm 0.00 in0.0 mm
09:42 PM 73.6°F23.1°C 55.4°F13.0°C 53% 3.8 mph ESE6.1 kmh ESE 5.8 mph9.3 kmh 30.13 in1020.3 mb 0.00 in0.0 mm 0.00 in0.0 mm 0.00 in0.0 mm
09:44 PM 73.6°F23.1°C 55.4°F13.0°C 53% 4.3 mph ESE6.9 kmh ESE 9.2 mph14.8 kmh 30.13 in1020.3 mb 0.00 in0.0 mm 0.00 in0.0 mm 0.00 in0.0 mm
09:46 PM 73.6°F23.1°C 55.4°F13.0°C 53% 4.5 mph SE7.2 kmh SE 5.6 mph9.0 kmh 30.13 in1020.3 mb 0.00 in0.0 mm 0.00 in0.0 mm 0.00 in0.0 mm
09:48 PM 73.4°F23.0°C 55.2°F12.9°C 53% 3.8 mph SE6.1 kmh SE 5.1 mph8.2 kmh 30.12 in1020.0 mb 0.00 in0.0 mm 0.00 in0.0 mm 0.00 in0.0 mm
09:50 PM 73.2°F22.9°C 55.0°F12.8°C 53% 4.3 mph SE6.9 kmh SE 8.7 mph14.0 kmh 30.13 in1020.3 mb 0.00 in0.0 mm 0.00 in0.0 mm 0.00 in0.0 mm
09:53 PM 73.2°F22.9°C 55.0°F12.8°C 53% 5.1 mph SSE8.2 kmh SSE 9.4 mph15.1 kmh 30.13 in1020.3 mb 0.00 in0.0 mm 0.00 in0.0 mm 0.00 in0.0 mm
09:55 PM 73.2°F22.9°C 55.0°F12.8°C 53% 4.9 mph ESE7.9 kmh ESE 6.3 mph10.1 kmh 30.13 in1020.3 mb 0.00 in0.0 mm 0.00 in0.0 mm 0.00 in0.0 mm
09:57 PM 73.0°F22.8°C 54.9°F12.7°C 53% 5.6 mph E9.0 kmh E 8.9 mph14.3 kmh 30.13 in1020.3 mb 0.00 in0.0 mm 0.00 in0.0 mm 0.00 in0.0 mm
09:59 PM 73.0°F22.8°C 54.9°F12.7°C 53% 4.7 mph ESE7.6 kmh ESE 7.4 mph11.9 kmh 30.13 in1020.3 mb 0.00 in0.0 mm 0.00 in0.0 mm 0.00 in0.0 mm
10:01 PM 73.0°F22.8°C 54.9°F12.7°C 53% 5.1 mph ESE8.2 kmh ESE 10.1 mph16.3 kmh 30.13 in1020.3 mb 0.00 in0.0 mm 0.00 in0.0 mm 0.00 in0.0 mm
10:04 PM 73.0°F22.8°C 54.9°F12.7°C 53% 4.5 mph E7.2 kmh E 5.8 mph9.3 kmh 30.13 in1020.3 mb 0.00 in0.0 mm 0.00 in0.0 mm 0.00 in0.0 mm
10:06 PM 73.0°F22.8°C 54.9°F12.7°C 53% 3.6 mph E5.8 kmh E 5.8 mph9.3 kmh 30.13 in1020.3 mb 0.00 in0.0 mm 0.00 in0.0 mm 0.00 in0.0 mm
10:08 PM 72.9°F22.7°C 54.7°F12.6°C 53% 3.6 mph E5.8 kmh E 5.8 mph9.3 kmh 30.13 in1020.3 mb 0.00 in0.0 mm 0.00 in0.0 mm 0.00 in0.0 mm
10:10 PM 72.9°F22.7°C 54.7°F12.6°C 53% 3.1 mph ESE5.0 kmh ESE 3.8 mph6.1 kmh 30.13 in1020.3 mb 0.00 in0.0 mm 0.00 in0.0 mm 0.00 in0.0 mm
10:12 PM 72.9°F22.7°C 54.7°F12.6°C 53% 2.9 mph NE4.7 kmh NE 3.4 mph5.5 kmh 30.13 in1020.3 mb 0.00 in0.0 mm 0.00 in0.0 mm 0.00 in0.0 mm
10:14 PM 72.9°F22.7°C 54.7°F12.6°C 53% 2.5 mph NNE4.0 kmh NNE 4.0 mph6.4 kmh 30.14 in1020.7 mb 0.00 in0.0 mm 0.00 in0.0 mm 0.00 in0.0 mm
10:17 PM 72.7°F22.6°C 54.5°F12.5°C 53% 2.5 mph NNE4.0 kmh NNE 2.9 mph4.7 kmh 30.14 in1020.7 mb 0.00 in0.0 mm 0.00 in0.0 mm 0.00 in0.0 mm
10:19 PM 72.7°F22.6°C 54.5°F12.5°C 53% 2.7 mph NE4.3 kmh NE 5.4 mph8.7 kmh 30.14 in1020.7 mb 0.00 in0.0 mm 0.00 in0.0 mm 0.00 in0.0 mm
10:21 PM 72.7°F22.6°C 54.5°F12.5°C 53% 2.5 mph ENE4.0 kmh ENE 3.1 mph5.0 kmh 30.13 in1020.3 mb 0.00 in0.0 mm 0.00 in0.0 mm 0.00 in0.0 mm
10:23 PM 72.7°F22.6°C 54.5°F12.5°C 53% 2.2 mph ENE3.5 kmh ENE 2.9 mph4.7 kmh 30.13 in1020.3 mb 0.00 in0.0 mm 0.00 in0.0 mm 0.00 in0.0 mm
10:26 PM 72.7°F22.6°C 54.5°F12.5°C 53% 2.0 mph ESE3.2 kmh ESE 3.8 mph6.1 kmh 30.13 in1020.3 mb 0.00 in0.0 mm 0.00 in0.0 mm 0.00 in0.0 mm
10:28 PM 72.7°F22.6°C 54.5°F12.5°C 53% 1.8 mph SE2.9 kmh SE 2.9 mph4.7 kmh 30.14 in1020.7 mb 0.00 in0.0 mm 0.00 in0.0 mm 0.00 in0.0 mm
10:30 PM 72.7°F22.6°C 54.5°F12.5°C 53% 2.2 mph NE3.5 kmh NE 5.6 mph9.0 kmh 30.14 in1020.7 mb 0.00 in0.0 mm 0.00 in0.0 mm 0.00 in0.0 mm
10:33 PM 72.7°F22.6°C 54.5°F12.5°C 53% 2.2 mph ESE3.5 kmh ESE 3.6 mph5.8 kmh 30.14 in1020.7 mb 0.00 in0.0 mm 0.00 in0.0 mm 0.00 in0.0 mm
10:35 PM 72.7°F22.6°C 54.5°F12.5°C 53% 2.5 mph SSE4.0 kmh SSE 5.1 mph8.2 kmh 30.14 in1020.7 mb 0.00 in0.0 mm 0.00 in0.0 mm 0.00 in0.0 mm
10:37 PM 72.7°F22.6°C 54.5°F12.5°C 53% 1.8 mph ENE2.9 kmh ENE 2.2 mph3.5 kmh 30.14 in1020.7 mb 0.00 in0.0 mm 0.00 in0.0 mm 0.00 in0.0 mm
10:39 PM 72.7°F22.6°C 54.5°F12.5°C 53% 2.2 mph ESE3.5 kmh ESE 4.5 mph7.2 kmh 30.14 in1020.7 mb 0.00 in0.0 mm 0.00 in0.0 mm 0.00 in0.0 mm
10:41 PM 72.7°F22.6°C 54.5°F12.5°C 53% 1.3 mph E2.1 kmh E 2.7 mph4.3 kmh 30.13 in1020.3 mb 0.00 in0.0 mm 0.00 in0.0 mm 0.00 in0.0 mm
10:44 PM 72.5°F22.5°C 54.3°F12.4°C 53% 2.5 mph E4.0 kmh E 5.6 mph9.0 kmh 30.14 in1020.7 mb 0.00 in0.0 mm 0.00 in0.0 mm 0.00 in0.0 mm
10:46 PM 72.5°F22.5°C 54.3°F12.4°C 53% 2.9 mph SE4.7 kmh SE 5.1 mph8.2 kmh 30.14 in1020.7 mb 0.00 in0.0 mm 0.00 in0.0 mm 0.00 in0.0 mm
10:48 PM 72.5°F22.5°C 54.9°F12.7°C 54% 3.4 mph E5.5 kmh E 5.8 mph9.3 kmh 30.14 in1020.7 mb 0.00 in0.0 mm 0.00 in0.0 mm 0.00 in0.0 mm
10:50 PM 72.3°F22.4°C 54.7°F12.6°C 54% 3.4 mph E5.5 kmh E 4.0 mph6.4 kmh 30.14 in1020.7 mb 0.00 in0.0 mm 0.00 in0.0 mm 0.00 in0.0 mm
10:52 PM 72.3°F22.4°C 54.7°F12.6°C 54% 2.7 mph SSE4.3 kmh SSE 4.7 mph7.6 kmh 30.14 in1020.7 mb 0.00 in0.0 mm 0.00 in0.0 mm 0.00 in0.0 mm
10:54 PM 72.3°F22.4°C 54.7°F12.6°C 54% 2.7 mph SE4.3 kmh SE 3.8 mph6.1 kmh 30.14 in1020.7 mb 0.00 in0.0 mm 0.00 in0.0 mm 0.00 in0.0 mm
10:56 PM 72.1°F22.3°C 54.5°F12.5°C 54% 2.7 mph ESE4.3 kmh ESE 4.9 mph7.9 kmh 30.13 in1020.3 mb 0.00 in0.0 mm 0.00 in0.0 mm 0.00 in0.0 mm
10:59 PM 72.1°F22.3°C 54.5°F12.5°C 54% 2.2 mph SE3.5 kmh SE 3.6 mph5.8 kmh 30.14 in1020.7 mb 0.00 in0.0 mm 0.00 in0.0 mm 0.00 in0.0 mm
11:01 PM 72.1°F22.3°C 54.5°F12.5°C 54% 1.8 mph E2.9 kmh E 2.5 mph4.0 kmh 30.14 in1020.7 mb 0.00 in0.0 mm 0.00 in0.0 mm 0.00 in0.0 mm
11:03 PM 72.0°F22.2°C 54.3°F12.4°C 54% 1.8 mph ENE2.9 kmh ENE 2.5 mph4.0 kmh 30.14 in1020.7 mb 0.00 in0.0 mm 0.00 in0.0 mm 0.00 in0.0 mm
11:05 PM 72.0°F22.2°C 54.9°F12.7°C 55% 2.2 mph ESE3.5 kmh ESE 4.0 mph6.4 kmh 30.14 in1020.7 mb 0.00 in0.0 mm 0.00 in0.0 mm 0.00 in0.0 mm
11:08 PM 72.0°F22.2°C 54.9°F12.7°C 55% 2.2 mph E3.5 kmh E 3.4 mph5.5 kmh 30.14 in1020.7 mb 0.00 in0.0 mm 0.00 in0.0 mm 0.00 in0.0 mm
11:10 PM 71.8°F22.1°C 54.7°F12.6°C 55% 2.2 mph ENE3.5 kmh ENE 5.1 mph8.2 kmh 30.14 in1020.7 mb 0.00 in0.0 mm 0.00 in0.0 mm 0.00 in0.0 mm
11:12 PM 71.8°F22.1°C 54.7°F12.6°C 55% 2.9 mph ESE4.7 kmh ESE 5.4 mph8.7 kmh 30.14 in1020.7 mb 0.00 in0.0 mm 0.00 in0.0 mm 0.00 in0.0 mm
11:14 PM 71.6°F22.0°C 54.5°F12.5°C 55% 2.5 mph SE4.0 kmh SE 4.0 mph6.4 kmh 30.13 in1020.3 mb 0.00 in0.0 mm 0.00 in0.0 mm 0.00 in0.0 mm
11:17 PM 71.4°F21.9°C 54.5°F12.5°C 55% 2.0 mph ESE3.2 kmh ESE 2.7 mph4.3 kmh 30.13 in1020.3 mb 0.00 in0.0 mm 0.00 in0.0 mm 0.00 in0.0 mm
11:19 PM 71.4°F21.9°C 54.5°F12.5°C 55% 2.2 mph ESE3.5 kmh ESE 3.6 mph5.8 kmh 30.13 in1020.3 mb 0.00 in0.0 mm 0.00 in0.0 mm 0.00 in0.0 mm
11:21 PM 71.2°F21.8°C 54.3°F12.4°C 55% 2.0 mph E3.2 kmh E 2.5 mph4.0 kmh 30.13 in1020.3 mb 0.00 in0.0 mm 0.00 in0.0 mm 0.00 in0.0 mm
11:23 PM 71.2°F21.8°C 54.3°F12.4°C 55% 1.1 mph SSE1.8 kmh SSE -- 30.13 in1020.3 mb 0.00 in0.0 mm 0.00 in0.0 mm 0.00 in0.0 mm
11:25 PM 71.2°F21.8°C 54.3°F12.4°C 55% 1.3 mph ENE2.1 kmh ENE 2.9 mph4.7 kmh 30.13 in1020.3 mb 0.00 in0.0 mm 0.00 in0.0 mm 0.00 in0.0 mm
11:27 PM 71.1°F21.7°C 54.1°F12.3°C 55% 1.1 mph NE1.8 kmh NE 2.0 mph3.2 kmh 30.14 in1020.7 mb 0.00 in0.0 mm 0.00 in0.0 mm 0.00 in0.0 mm
11:29 PM 70.9°F21.6°C 54.3°F12.4°C 56% 1.3 mph ESE2.1 kmh ESE 3.6 mph5.8 kmh 30.14 in1020.7 mb 0.00 in0.0 mm 0.00 in0.0 mm 0.00 in0.0 mm
11:32 PM 71.1°F21.7°C 54.5°F12.5°C 56% 2.5 mph E4.0 kmh E 4.9 mph7.9 kmh 30.14 in1020.7 mb 0.00 in0.0 mm 0.00 in0.0 mm 0.00 in0.0 mm
11:34 PM 71.1°F21.7°C 54.5°F12.5°C 56% 1.8 mph ENE2.9 kmh ENE 2.7 mph4.3 kmh 30.14 in1020.7 mb 0.00 in0.0 mm 0.00 in0.0 mm 0.00 in0.0 mm
11:36 PM 71.1°F21.7°C 54.5°F12.5°C 56% 1.8 mph S2.9 kmh S 2.7 mph4.3 kmh 30.14 in1020.7 mb 0.00 in0.0 mm 0.00 in0.0 mm 0.00 in0.0 mm
11:38 PM 71.2°F21.8°C 54.7°F12.6°C 56% 2.5 mph E4.0 kmh E 5.8 mph9.3 kmh 30.14 in1020.7 mb 0.00 in0.0 mm 0.00 in0.0 mm 0.00 in0.0 mm
11:40 PM 71.2°F21.8°C 54.7°F12.6°C 56% 3.1 mph ESE5.0 kmh ESE 5.1 mph8.2 kmh 30.14 in1020.7 mb 0.00 in0.0 mm 0.00 in0.0 mm 0.00 in0.0 mm
11:43 PM 70.9°F21.6°C 54.3°F12.4°C 56% 2.0 mph ESE3.2 kmh ESE 2.2 mph3.5 kmh 30.14 in1020.7 mb 0.00 in0.0 mm 0.00 in0.0 mm 0.00 in0.0 mm
11:45 PM 70.9°F21.6°C 54.3°F12.4°C 56% 1.6 mph ESE2.6 kmh ESE 2.2 mph3.5 kmh 30.14 in1020.7 mb 0.00 in0.0 mm 0.00 in0.0 mm 0.00 in0.0 mm
11:47 PM 70.9°F21.6°C 54.3°F12.4°C 56% 1.3 mph ESE2.1 kmh ESE 2.9 mph4.7 kmh 30.14 in1020.7 mb 0.00 in0.0 mm 0.00 in0.0 mm 0.00 in0.0 mm
11:49 PM 70.7°F21.5°C 54.3°F12.4°C 56% 0.9 mph ENE1.4 kmh ENE 2.0 mph3.2 kmh 30.13 in1020.3 mb 0.00 in0.0 mm 0.00 in0.0 mm 0.00 in0.0 mm
11:52 PM 70.7°F21.5°C 54.3°F12.4°C 56% 0.7 mph ENE1.1 kmh ENE 1.3 mph2.1 kmh 30.13 in1020.3 mb 0.00 in0.0 mm 0.00 in0.0 mm 0.00 in0.0 mm
11:54 PM 70.5°F21.4°C 54.1°F12.3°C 56% 0.4 mph ENE0.6 kmh ENE 0.7 mph1.1 kmh 30.14 in1020.7 mb 0.00 in0.0 mm 0.00 in0.0 mm 0.00 in0.0 mm
11:56 PM 70.5°F21.4°C 54.1°F12.3°C 56% 0.9 mph E1.4 kmh E 2.2 mph3.5 kmh 30.14 in1020.7 mb 0.00 in0.0 mm 0.00 in0.0 mm 0.00 in0.0 mm
11:58 PM 70.5°F21.4°C 54.1°F12.3°C 56% 1.3 mph ESE2.1 kmh ESE 2.9 mph4.7 kmh 30.13 in1020.3 mb 0.00 in0.0 mm 0.00 in0.0 mm 0.00 in0.0 mm